Observation data for New Home on 01/11/2018      Previous  Date  Next       Current Mesonet Observations  Soil Data  Daily Summary Page  Observations in Plain Language
KNH1 110600Z 23017KT 08/01 A2964 RMK A01 T00770007  RH  061%=      5-min Rain = 0
KNH1 110601Z 23017KT 08/01 A2964 RMK A01 T00770007  RH  061%=      5-min Rain = 0
KNH1 110602Z 23016KT 08/01 A2964 RMK A01 T00760007  RH  061%=      5-min Rain = 0
KNH1 110603Z 23018KT 08/01 A2964 RMK A01 T00760006  RH  061%=      5-min Rain = 0
KNH1 110604Z 23016KT 08/01 A2964 RMK A01 T00760006  RH  061%=      5-min Rain = 0
KNH1 110605Z 23018KT 08/01 A2964 RMK A01 T00760006  RH  061%=      5-min Rain = 0
KNH1 110606Z 23017KT 08/01 A2964 RMK A01 T00760006  RH  061%=      5-min Rain = 0
KNH1 110607Z 23017KT 08/01 A2964 RMK A01 T00760006  RH  061%=      5-min Rain = 0
KNH1 110608Z 23016G21KT 08/01 A2964 RMK A01 T00760006  RH  061%=      5-min Rain = 0
KNH1 110609Z 23018KT 08/01 A2964 RMK A01 T00760005  RH  061%=      5-min Rain = 0
KNH1 110610Z 23017KT 08/01 A2964 RMK A01 T00760006  RH  061%=      5-min Rain = 0
KNH1 110611Z 23017KT 08/01 A2964 RMK A01 T00750005  RH  061%=      5-min Rain = 0
KNH1 110612Z 23016KT 08/01 A2964 RMK A01 T00750005  RH  061%=      5-min Rain = 0
KNH1 110613Z 23016KT 08/01 A2964 RMK A01 T00750005  RH  061%=      5-min Rain = 0
KNH1 110614Z 23017KT 08/01 A2964 RMK A01 T00750005  RH  061%=      5-min Rain = 0
KNH1 110615Z 23017KT 08/00 A2964 RMK A01 T00750004  RH  061%=      5-min Rain = 0
KNH1 110616Z 23016KT 08/00 A2964 RMK A01 T00750004  RH  061%=      5-min Rain = 0
KNH1 110617Z 23017KT 08/00 A2964 RMK A01 T00750004  RH  061%=      5-min Rain = 0
KNH1 110618Z 23017KT 08/00 A2964 RMK A01 T00750004  RH  061%=      5-min Rain = 0
KNH1 110619Z 23017KT 08/00 A2964 RMK A01 T00750004  RH  061%=      5-min Rain = 0
KNH1 110620Z 23018KT 08/00 A2964 RMK A01 T00750004  RH  060%=      5-min Rain = 0
KNH1 110621Z 23016KT 08/00 A2964 RMK A01 T00760004  RH  060%=      5-min Rain = 0
KNH1 110622Z 23017G22KT 08/00 A2964 RMK A01 T00760004  RH  060%=      5-min Rain = 0
KNH1 110623Z 23018KT 08/00 A2964 RMK A01 T00760003  RH  060%=      5-min Rain = 0
KNH1 110624Z 23017KT 08/00 A2964 RMK A01 T00760003  RH  060%=      5-min Rain = 0
KNH1 110625Z 23016KT 08/00 A2964 RMK A01 T00770003  RH  060%=      5-min Rain = 0
KNH1 110626Z 23016KT 08/00 A2964 RMK A01 T00770003  RH  060%=      5-min Rain = 0
KNH1 110627Z 23018G23KT 08/00 A2964 RMK A01 T00770003  RH  060%=      5-min Rain = 0
KNH1 110628Z 23019KT 08/00 A2964 RMK A01 T00770003  RH  059%=      5-min Rain = 0
KNH1 110629Z 23017KT 08/00 A2964 RMK A01 T00780003  RH  059%=      5-min Rain = 0
KNH1 110630Z 23018KT 08/00 A2964 RMK A01 T00780003  RH  059%=      5-min Rain = 0
KNH1 110631Z 23017KT 08/00 A2964 RMK A01 T00780003  RH  059%=      5-min Rain = 0
KNH1 110632Z 23019KT 08/00 A2964 RMK A01 T00770002  RH  059%=      5-min Rain = 0
KNH1 110633Z 23020KT 08/00 A2964 RMK A01 T00780003  RH  059%=      5-min Rain = 0
KNH1 110634Z 23020KT 08/00 A2964 RMK A01 T00790003  RH  059%=      5-min Rain = 0
KNH1 110635Z 23019KT 08/00 A2964 RMK A01 T00790003  RH  059%=      5-min Rain = 0
KNH1 110636Z 23019KT 08/00 A2964 RMK A01 T00790003  RH  058%=      5-min Rain = 0
KNH1 110637Z 23018KT 08/00 A2964 RMK A01 T00790003  RH  058%=      5-min Rain = 0
KNH1 110638Z 23018KT 08/00 A2964 RMK A01 T00790003  RH  059%=      5-min Rain = 0
KNH1 110639Z 23018KT 08/00 A2964 RMK A01 T00790003  RH  059%=      5-min Rain = 0
KNH1 110640Z 23019KT 08/00 A2964 RMK A01 T00780003  RH  059%=      5-min Rain = 0
KNH1 110641Z 23018KT 08/00 A2964 RMK A01 T00790003  RH  059%=      5-min Rain = 0
KNH1 110642Z 23018KT 08/00 A2964 RMK A01 T00790002  RH  058%=      5-min Rain = 0
KNH1 110643Z 23018KT 08/00 A2964 RMK A01 T00790002  RH  058%=      5-min Rain = 0
KNH1 110644Z 23018KT 08/00 A2964 RMK A01 T00790002  RH  059%=      5-min Rain = 0
KNH1 110645Z 23019KT 08/00 A2964 RMK A01 T00790003  RH  059%=      5-min Rain = 0
KNH1 110646Z 23020KT 08/00 A2964 RMK A01 T00790003  RH  059%=      5-min Rain = 0
KNH1 110647Z 23019KT 08/00 A2964 RMK A01 T00790002  RH  058%=      5-min Rain = 0
KNH1 110648Z 23018KT 08/00 A2964 RMK A01 T00790003  RH  058%=      5-min Rain = 0
KNH1 110649Z 23018KT 08/00 A2964 RMK A01 T00790002  RH  058%=      5-min Rain = 0
KNH1 110650Z 23020KT 08/00 A2964 RMK A01 T00780002  RH  058%=      5-min Rain = 0
KNH1 110651Z 23019KT 08/00 A2964 RMK A01 T00780002  RH  058%=      5-min Rain = 0
KNH1 110652Z 23019KT 08/00 A2964 RMK A01 T00780002  RH  058%=      5-min Rain = 0
KNH1 110653Z 23019KT 08/00 A2964 RMK A01 T00790002  RH  058%=      5-min Rain = 0
KNH1 110654Z 24018KT 08/00 A2964 RMK A01 T00780002  RH  058%=      5-min Rain = 0
KNH1 110655Z 23019KT 08/00 A2964 RMK A01 T00780002  RH  059%=      5-min Rain = 0
KNH1 110656Z 24020KT 08/00 A2964 RMK A01 T00780002  RH  059%=      5-min Rain = 0
KNH1 110657Z 24020KT 08/00 A2964 RMK A01 T00790003  RH  059%=      5-min Rain = 0
KNH1 110658Z 24019KT 08/00 A2964 RMK A01 T00790002  RH  058%=      5-min Rain = 0
KNH1 110659Z 23020KT 08/00 A2964 RMK A01 T00790003  RH  058%=      5-min Rain = 0
KNH1 110700Z 24020KT 08/00 A2964 RMK A01 T00790002  RH  058%=      5-min Rain = 0
KNH1 110701Z 24020G25KT 08/00 A2964 RMK A01 T00800002  RH  058%=      5-min Rain = 0
KNH1 110702Z 24020KT 08/00 A2964 RMK A01 T00810003  RH  058%=      5-min Rain = 0
KNH1 110703Z 24023G28KT 08/00 A2964 RMK A01 T00810002  RH  058%=      5-min Rain = 0
KNH1 110704Z 24023G28KT 08/00 A2964 RMK A01 T00820003  RH  057%=      5-min Rain = 0
KNH1 110705Z 24023G28KT 08/00 A2964 RMK A01 T00830002  RH  057%=      5-min Rain = 0
KNH1 110706Z 24022KT 08/00 A2964 RMK A01 T00840003  RH  057%=      5-min Rain = 0
KNH1 110707Z 24024KT 09/00 A2964 RMK A01 T00850003  RH  056%=      5-min Rain = 0
KNH1 110708Z 24022KT 09/00 A2963 RMK A01 T00850003  RH  056%=      5-min Rain = 0
KNH1 110709Z 24024KT 09/00 A2963 RMK A01 T00860003  RH  056%=      5-min Rain = 0
KNH1 110710Z 24022KT 09/00 A2964 RMK A01 T00870003  RH  056%=      5-min Rain = 0
KNH1 110711Z 24022G27KT 09/00 A2964 RMK A01 T00870003  RH  055%=      5-min Rain = 0
KNH1 110712Z 24022G28KT 09/00 A2963 RMK A01 T00870003  RH  055%=      5-min Rain = 0
KNH1 110713Z 24022G27KT 09/00 A2963 RMK A01 T00880003  RH  055%=      5-min Rain = 0
KNH1 110714Z 24022KT 09/00 A2963 RMK A01 T00880003  RH  055%=      5-min Rain = 0
KNH1 110715Z 24022KT 09/00 A2963 RMK A01 T00890002  RH  055%=      5-min Rain = 0
KNH1 110716Z 24020G25KT 09/00 A2964 RMK A01 T00900003  RH  054%=      5-min Rain = 0
KNH1 110717Z 25022KT 09/00 A2964 RMK A01 T00900003  RH  054%=      5-min Rain = 0
KNH1 110718Z 25021KT 09/00 A2964 RMK A01 T00900002  RH  054%=      5-min Rain = 0
KNH1 110719Z 24020KT 09/00 A2964 RMK A01 T00900002  RH  054%=      5-min Rain = 0
KNH1 110720Z 24021KT 09/00 A2964 RMK A01 T00900002  RH  054%=      5-min Rain = 0
KNH1 110721Z 24022KT 09/00 A2964 RMK A01 T00900003  RH  054%=      5-min Rain = 0
KNH1 110722Z 24022KT 09/00 A2964 RMK A01 T00900002  RH  054%=      5-min Rain = 0
KNH1 110723Z 24020KT 09/00 A2964 RMK A01 T00900003  RH  054%=      5-min Rain = 0
KNH1 110724Z 24018KT 09/00 A2964 RMK A01 T00900002  RH  054%=      5-min Rain = 0
KNH1 110725Z 24019KT 09/00 A2964 RMK A01 T00890002  RH  054%=      5-min Rain = 0
KNH1 110726Z 24020KT 09/00 A2964 RMK A01 T00880002  RH  055%=      5-min Rain = 0
KNH1 110727Z 24019KT 09/00 A2964 RMK A01 T00870003  RH  055%=      5-min Rain = 0
KNH1 110728Z 24018KT 09/00 A2964 RMK A01 T00870003  RH  055%=      5-min Rain = 0
KNH1 110729Z 24017KT 09/00 A2964 RMK A01 T00850002  RH  056%=      5-min Rain = 0
KNH1 110730Z 24019KT 08/00 A2964 RMK A01 T00840002  RH  056%=      5-min Rain = 0
KNH1 110731Z 24019KT 08/00 A2964 RMK A01 T00840002  RH  056%=      5-min Rain = 0
KNH1 110732Z 24018KT 08/00 A2964 RMK A01 T00840002  RH  056%=      5-min Rain = 0
KNH1 110733Z 24018KT 08/00 A2964 RMK A01 T00840002  RH  056%=      5-min Rain = 0
KNH1 110734Z 24017KT 08/00 A2965 RMK A01 T00840002  RH  056%=      5-min Rain = 0
KNH1 110735Z 24018KT 08/00 A2965 RMK A01 T00830002  RH  057%=      5-min Rain = 0
KNH1 110736Z 24017KT 08/00 A2965 RMK A01 T00830002  RH  057%=      5-min Rain = 0
KNH1 110737Z 23018KT 08/00 A2965 RMK A01 T00820001  RH  057%=      5-min Rain = 0
KNH1 110738Z 23019KT 08/00 A2965 RMK A01 T00820001  RH  057%=      5-min Rain = 0
KNH1 110739Z 23019KT 08/00 A2965 RMK A01 T00820001  RH  057%=      5-min Rain = 0
KNH1 110740Z 23017KT 08/00 A2965 RMK A01 T00820001  RH  057%=      5-min Rain = 0
KNH1 110741Z 23019KT 08/00 A2965 RMK A01 T00810001  RH  057%=      5-min Rain = 0
KNH1 110742Z 23018KT 08/00 A2965 RMK A01 T00810002  RH  057%=      5-min Rain = 0
KNH1 110743Z 23019KT 08/00 A2965 RMK A01 T00810003  RH  058%=      5-min Rain = 0
KNH1 110744Z 23021KT 08/00 A2965 RMK A01 T00810003  RH  058%=      5-min Rain = 0
KNH1 110745Z 23018KT 08/00 A2965 RMK A01 T00810003  RH  058%=      5-min Rain = 0
KNH1 110746Z 24017G22KT 08/00 A2965 RMK A01 T00800002  RH  058%=      5-min Rain = 0
KNH1 110747Z 24018KT 08/00 A2965 RMK A01 T00800002  RH  058%=      5-min Rain = 0
KNH1 110748Z 24016KT 08/00 A2965 RMK A01 T00790003  RH  058%=      5-min Rain = 0
KNH1 110749Z 24017KT 08/00 A2965 RMK A01 T00790002  RH  058%=      5-min Rain = 0
KNH1 110750Z 24016KT 08/00 A2965 RMK A01 T00790002  RH  058%=      5-min Rain = 0
KNH1 110751Z 24016KT 08/00 A2965 RMK A01 T00790002  RH  058%=      5-min Rain = 0
KNH1 110752Z 24017KT 08/00 A2965 RMK A01 T00780002  RH  059%=      5-min Rain = 0
KNH1 110753Z 24017KT 08/00 A2965 RMK A01 T00780002  RH  059%=      5-min Rain = 0
KNH1 110754Z 24015KT 08/00 A2965 RMK A01 T00790003  RH  059%=      5-min Rain = 0
KNH1 110755Z 25016KT 08/00 A2965 RMK A01 T00790002  RH  058%=      5-min Rain = 0
KNH1 110756Z 25016KT 08/00 A2965 RMK A01 T00780002  RH  058%=      5-min Rain = 0
KNH1 110757Z 25018KT 08/00 A2965 RMK A01 T00790002  RH  058%=      5-min Rain = 0
KNH1 110758Z 25018KT 08/00 A2965 RMK A01 T00800003  RH  058%=      5-min Rain = 0
KNH1 110759Z 25018KT 08/00 A2965 RMK A01 T00810003  RH  058%=      5-min Rain = 0
KNH1 110800Z 25015KT 08/00 A2965 RMK A01 T00810002  RH  057%=      5-min Rain = 0
KNH1 110801Z 25017KT 08/00 A2965 RMK A01 T00810002  RH  057%=      5-min Rain = 0
KNH1 110802Z 25017KT 08/00 A2965 RMK A01 T00800001  RH  057%=      5-min Rain = 0
KNH1 110803Z 25019KT 08/00 A2965 RMK A01 T00810001  RH  057%=      5-min Rain = 0
KNH1 110804Z 25017KT 08/00 A2965 RMK A01 T00820002  RH  057%=      5-min Rain = 0
KNH1 110805Z 25016KT 08/00 A2965 RMK A01 T00820001  RH  057%=      5-min Rain = 0
KNH1 110806Z 25017KT 08/00 A2965 RMK A01 T00810001  RH  057%=      5-min Rain = 0
KNH1 110807Z 25016KT 08/00 A2965 RMK A01 T00810001  RH  057%=      5-min Rain = 0
KNH1 110808Z 25016KT 08/00 A2965 RMK A01 T00810001  RH  057%=      5-min Rain = 0
KNH1 110809Z 25017KT 08/00 A2965 RMK A01 T00800001  RH  057%=      5-min Rain = 0
KNH1 110810Z 25017KT 08/00 A2965 RMK A01 T00800001  RH  057%=      5-min Rain = 0
KNH1 110811Z 25017KT 08/00 A2965 RMK A01 T00800002  RH  058%=      5-min Rain = 0
KNH1 110812Z 24016G21KT 08/00 A2965 RMK A01 T00790002  RH  058%=      5-min Rain = 0
KNH1 110813Z 25017KT 08/00 A2965 RMK A01 T00790002  RH  058%=      5-min Rain = 0
KNH1 110814Z 25014KT 08/00 A2966 RMK A01 T00790002  RH  058%=      5-min Rain = 0
KNH1 110815Z 25014KT 08/00 A2966 RMK A01 T00780002  RH  059%=      5-min Rain = 0
KNH1 110816Z 25014KT 08/00 A2966 RMK A01 T00770002  RH  059%=      5-min Rain = 0
KNH1 110817Z 25015KT 08/00 A2966 RMK A01 T00770002  RH  059%=      5-min Rain = 0
KNH1 110818Z 25014KT 08/00 A2966 RMK A01 T00770002  RH  059%=      5-min Rain = 0
KNH1 110819Z 25015KT 08/00 A2966 RMK A01 T00770002  RH  059%=      5-min Rain = 0
KNH1 110820Z 25017KT 08/00 A2966 RMK A01 T00770002  RH  059%=      5-min Rain = 0
KNH1 110821Z 25016KT 08/00 A2966 RMK A01 T00770002  RH  059%=      5-min Rain = 0
KNH1 110822Z 24015KT 08/00 A2966 RMK A01 T00780002  RH  059%=      5-min Rain = 0
KNH1 110823Z 24017KT 08/00 A2966 RMK A01 T00780002  RH  059%=      5-min Rain = 0
KNH1 110824Z 24015KT 08/00 A2966 RMK A01 T00780002  RH  059%=      5-min Rain = 0
KNH1 110825Z 24016KT 08/00 A2966 RMK A01 T00770002  RH  059%=      5-min Rain = 0
KNH1 110826Z 24017KT 08/00 A2966 RMK A01 T00770002  RH  059%=      5-min Rain = 0
KNH1 110827Z 24017G22KT 08/00 A2966 RMK A01 T00780003  RH  059%=      5-min Rain = 0
KNH1 110828Z 25015KT 08/00 A2966 RMK A01 T00780002  RH  059%=      5-min Rain = 0
KNH1 110829Z 25016KT 08/00 A2966 RMK A01 T00780003  RH  059%=      5-min Rain = 0
KNH1 110830Z 26014KT 08/00 A2966 RMK A01 T00780002  RH  059%=      5-min Rain = 0
KNH1 110831Z 26013KT 08/00 A2967 RMK A01 T00770002  RH  059%=      5-min Rain = 0
KNH1 110832Z 27013KT 08/00 A2967 RMK A01 T00770003  RH  059%=      5-min Rain = 0
KNH1 110833Z 27012KT 08/00 A2967 RMK A01 T00770003  RH  059%=      5-min Rain = 0
KNH1 110834Z 27011KT 08/00 A2967 RMK A01 T00760002  RH  060%=      5-min Rain = 0
KNH1 110835Z 27011KT 08/00 A2967 RMK A01 T00760002  RH  060%=      5-min Rain = 0
KNH1 110836Z 26012KT 08/00 A2967 RMK A01 T00750002  RH  060%=      5-min Rain = 0
KNH1 110837Z 26012KT 07/00 A2967 RMK A01 T00740002  RH  060%=      5-min Rain = 0
KNH1 110838Z 25012KT 07/00 A2967 RMK A01 T00740002  RH  060%=      5-min Rain = 0
KNH1 110839Z 25012KT 07/00 A2967 RMK A01 T00740002  RH  060%=      5-min Rain = 0
KNH1 110840Z 25013KT 07/00 A2967 RMK A01 T00740002  RH  060%=      5-min Rain = 0
KNH1 110841Z 25015KT 07/00 A2967 RMK A01 T00740002  RH  060%=      5-min Rain = 0
KNH1 110842Z 25015KT 08/00 A2967 RMK A01 T00750003  RH  060%=      5-min Rain = 0
KNH1 110843Z 25014KT 08/00 A2967 RMK A01 T00750002  RH  060%=      5-min Rain = 0
KNH1 110844Z 25014KT 08/00 A2967 RMK A01 T00750002  RH  060%=      5-min Rain = 0
KNH1 110845Z 25014KT 07/00 A2967 RMK A01 T00740002  RH  060%=      5-min Rain = 0
KNH1 110846Z 25013KT 07/00 A2967 RMK A01 T00740002  RH  060%=      5-min Rain = 0
KNH1 110847Z 25013KT 07/00 A2967 RMK A01 T00730002  RH  060%=      5-min Rain = 0
KNH1 110848Z 25014KT 07/00 A2967 RMK A01 T00730002  RH  061%=      5-min Rain = 0
KNH1 110849Z 25014KT 07/00 A2967 RMK A01 T00730002  RH  061%=      5-min Rain = 0
KNH1 110850Z 25014KT 07/00 A2967 RMK A01 T00740002  RH  060%=      5-min Rain = 0
KNH1 110851Z 25014KT 07/00 A2967 RMK A01 T00730002  RH  060%=      5-min Rain = 0
KNH1 110852Z 26016KT 07/00 A2967 RMK A01 T00740002  RH  060%=      5-min Rain = 0
KNH1 110853Z 26015KT 07/00 A2967 RMK A01 T00740002  RH  060%=      5-min Rain = 0
KNH1 110854Z 26013KT 08/00 A2967 RMK A01 T00750002  RH  060%=      5-min Rain = 0
KNH1 110855Z 26016KT 08/00 A2967 RMK A01 T00750002  RH  060%=      5-min Rain = 0
KNH1 110856Z 26016KT 08/00 A2967 RMK A01 T00750002  RH  060%=      5-min Rain = 0
KNH1 110857Z 26015KT 08/00 A2967 RMK A01 T00760002  RH  060%=      5-min Rain = 0
KNH1 110858Z 26014KT 08/00 A2967 RMK A01 T00760002  RH  059%=      5-min Rain = 0
KNH1 110859Z 26016KT 08/00 A2967 RMK A01 T00750002  RH  060%=      5-min Rain = 0
KNH1 110900Z 26014KT 08/00 A2967 RMK A01 T00750002  RH  060%=      5-min Rain = 0
KNH1 110901Z 26014KT 08/00 A2967 RMK A01 T00750002  RH  060%=      5-min Rain = 0
KNH1 110902Z 26016KT 08/00 A2967 RMK A01 T00750002  RH  060%=      5-min Rain = 0
KNH1 110903Z 26015KT 08/00 A2967 RMK A01 T00750002  RH  060%=      5-min Rain = 0
KNH1 110904Z 26016KT 07/00 A2967 RMK A01 T00740002  RH  060%=      5-min Rain = 0
KNH1 110905Z 26015KT 08/00 A2967 RMK A01 T00750002  RH  060%=      5-min Rain = 0
KNH1 110906Z 26015KT 08/00 A2967 RMK A01 T00750002  RH  060%=      5-min Rain = 0
KNH1 110907Z 26016KT 08/00 A2967 RMK A01 T00750002  RH  060%=      5-min Rain = 0
KNH1 110908Z 26016KT 08/00 A2967 RMK A01 T00750002  RH  060%=      5-min Rain = 0
KNH1 110909Z 26015KT 08/00 A2967 RMK A01 T00750002  RH  059%=      5-min Rain = 0
KNH1 110910Z 26015KT 08/00 A2967 RMK A01 T00750002  RH  059%=      5-min Rain = 0
KNH1 110911Z 27014KT 08/00 A2967 RMK A01 T00750001  RH  060%=      5-min Rain = 0
KNH1 110912Z 26015KT 07/00 A2967 RMK A01 T00740001  RH  060%=      5-min Rain = 0
KNH1 110913Z 26014KT 07/00 A2967 RMK A01 T00740001  RH  060%=      5-min Rain = 0
KNH1 110914Z 26012KT 07/00 A2968 RMK A01 T00740001  RH  060%=      5-min Rain = 0
KNH1 110915Z 26013KT 07/00 A2968 RMK A01 T00740001  RH  060%=      5-min Rain = 0
KNH1 110916Z 26014KT 07/00 A2968 RMK A01 T00730001  RH  060%=      5-min Rain = 0
KNH1 110917Z 27013KT 07/00 A2968 RMK A01 T00740001  RH  060%=      5-min Rain = 0
KNH1 110918Z 27013KT 07/00 A2968 RMK A01 T00740001  RH  060%=      5-min Rain = 0
KNH1 110919Z 27013KT 07/00 A2968 RMK A01 T00740001  RH  060%=      5-min Rain = 0
KNH1 110920Z 27013KT 07/00 A2968 RMK A01 T00740001  RH  060%=      5-min Rain = 0
KNH1 110921Z 27015KT 07/00 A2967 RMK A01 T00740001  RH  060%=      5-min Rain = 0
KNH1 110922Z 27013KT 07/00 A2968 RMK A01 T00740001  RH  060%=      5-min Rain = 0
KNH1 110923Z 28014KT 08/00 A2968 RMK A01 T00750001  RH  060%=      5-min Rain = 0
KNH1 110924Z 27014KT 08/00 A2968 RMK A01 T00750001  RH  060%=      5-min Rain = 0
KNH1 110925Z 28015KT 08/00 A2968 RMK A01 T00760002  RH  059%=      5-min Rain = 0
KNH1 110926Z 28014KT 08/00 A2968 RMK A01 T00760002  RH  059%=      5-min Rain = 0
KNH1 110927Z 28015G20KT 08/00 A2968 RMK A01 T00770002  RH  059%=      5-min Rain = 0
KNH1 110928Z 28014KT 08/00 A2968 RMK A01 T00770001  RH  059%=      5-min Rain = 0
KNH1 110929Z 28015KT 08/00 A2968 RMK A01 T00770002  RH  059%=      5-min Rain = 0
KNH1 110930Z 28016G21KT 08/00 A2968 RMK A01 T00770002  RH  059%=      5-min Rain = 0
KNH1 110931Z 27016KT 08/00 A2968 RMK A01 T00780002  RH  059%=      5-min Rain = 0
KNH1 110932Z 28015KT 08/00 A2968 RMK A01 T00790002  RH  058%=      5-min Rain = 0
KNH1 110933Z 27016G21KT 08/00 A2968 RMK A01 T00780002  RH  058%=      5-min Rain = 0
KNH1 110934Z 27015KT 08/00 A2968 RMK A01 T00790002  RH  058%=      5-min Rain = 0
KNH1 110935Z 28017KT 08/00 A2968 RMK A01 T00790002  RH  058%=      5-min Rain = 0
KNH1 110936Z 27016KT 08/00 A2968 RMK A01 T00790002  RH  058%=      5-min Rain = 0
KNH1 110937Z 28018KT 08/00 A2968 RMK A01 T00810003  RH  058%=      5-min Rain = 0
KNH1 110938Z 28016KT 08/00 A2968 RMK A01 T00820003  RH  058%=      5-min Rain = 0
KNH1 110939Z 28016KT 08/00 A2968 RMK A01 T00820003  RH  057%=      5-min Rain = 0
KNH1 110940Z 28016KT 08/00 A2968 RMK A01 T00820003  RH  057%=      5-min Rain = 0
KNH1 110941Z 28016KT 08/00 A2968 RMK A01 T00820003  RH  057%=      5-min Rain = 0
KNH1 110942Z 28016KT 08/00 A2968 RMK A01 T00820003  RH  057%=      5-min Rain = 0
KNH1 110943Z 28018KT 08/00 A2968 RMK A01 T00820003  RH  058%=      5-min Rain = 0
KNH1 110944Z 28019KT 08/00 A2968 RMK A01 T00820003  RH  058%=      5-min Rain = 0
KNH1 110945Z 28015KT 08/00 A2969 RMK A01 T00820003  RH  058%=      5-min Rain = 0
KNH1 110946Z 28016KT 08/00 A2969 RMK A01 T00820003  RH  057%=      5-min Rain = 0
KNH1 110947Z 28015G20KT 08/00 A2969 RMK A01 T00810003  RH  058%=      5-min Rain = 0
KNH1 110948Z 28015KT 08/00 A2969 RMK A01 T00810003  RH  058%=      5-min Rain = 0
KNH1 110949Z 28018KT 08/00 A2969 RMK A01 T00810003  RH  058%=      5-min Rain = 0
KNH1 110950Z 28017KT 08/00 A2969 RMK A01 T00810003  RH  058%=      5-min Rain = 0
KNH1 110951Z 28014KT 08/00 A2969 RMK A01 T00810003  RH  058%=      5-min Rain = 0
KNH1 110952Z 28015KT 08/00 A2969 RMK A01 T00810003  RH  058%=      5-min Rain = 0
KNH1 110953Z 28015KT 08/00 A2969 RMK A01 T00800003  RH  058%=      5-min Rain = 0
KNH1 110954Z 28016KT 08/00 A2969 RMK A01 T00790003  RH  058%=      5-min Rain = 0
KNH1 110955Z 28015G21KT 08/00 A2969 RMK A01 T00790003  RH  059%=      5-min Rain = 0
KNH1 110956Z 29014KT 08/00 A2969 RMK A01 T00790003  RH  059%=      5-min Rain = 0
KNH1 110957Z 29017KT 08/00 A297 RMK A01 T00790003  RH  059%=      5-min Rain = 0
KNH1 110958Z 29013KT 08/00 A297 RMK A01 T00800004  RH  059%=      5-min Rain = 0
KNH1 110959Z 29014KT 08/00 A297 RMK A01 T00800003  RH  059%=      5-min Rain = 0
KNH1 111000Z 29014G19KT 08/00 A297 RMK A01 T00800004  RH  059%=      5-min Rain = 0
KNH1 111001Z 29015G20KT 08/00 A297 RMK A01 T00800004  RH  059%=      5-min Rain = 0
KNH1 111002Z 29015KT 08/01 A297 RMK A01 T00810005  RH  059%=      5-min Rain = 0
KNH1 111003Z 28015KT 08/00 A297 RMK A01 T00810004  RH  058%=      5-min Rain = 0
KNH1 111004Z 29012KT 08/00 A297 RMK A01 T00810004  RH  058%=      5-min Rain = 0
KNH1 111005Z 29013KT 08/00 A297 RMK A01 T00810004  RH  059%=      5-min Rain = 0
KNH1 111006Z 28013KT 08/01 A297 RMK A01 T00800005  RH  059%=      5-min Rain = 0
KNH1 111007Z 28014KT 08/00 A297 RMK A01 T00800004  RH  059%=      5-min Rain = 0
KNH1 111008Z 29014KT 08/01 A297 RMK A01 T00810005  RH  059%=      5-min Rain = 0
KNH1 111009Z 29012KT 08/01 A297 RMK A01 T00810005  RH  059%=      5-min Rain = 0
KNH1 111010Z 28012KT 08/01 A2971 RMK A01 T00810005  RH  059%=      5-min Rain = 0
KNH1 111011Z 28013KT 08/01 A2971 RMK A01 T00810005  RH  059%=      5-min Rain = 0
KNH1 111012Z 29014KT 08/01 A2971 RMK A01 T00810005  RH  059%=      5-min Rain = 0
KNH1 111013Z 28013KT 08/01 A2971 RMK A01 T00810005  RH  059%=      5-min Rain = 0
KNH1 111014Z 29013KT 08/01 A2971 RMK A01 T00810005  RH  059%=      5-min Rain = 0
KNH1 111015Z 29013KT 08/01 A2971 RMK A01 T00810005  RH  059%=      5-min Rain = 0
KNH1 111016Z 29013KT 08/01 A2971 RMK A01 T00810005  RH  059%=      5-min Rain = 0
KNH1 111017Z 29014KT 08/01 A2971 RMK A01 T00810005  RH  059%=      5-min Rain = 0
KNH1 111018Z 29014KT 08/01 A2971 RMK A01 T00810005  RH  059%=      5-min Rain = 0
KNH1 111019Z 28014KT 08/01 A2971 RMK A01 T00810005  RH  059%=      5-min Rain = 0
KNH1 111020Z 29013KT 08/01 A2971 RMK A01 T00810005  RH  059%=      5-min Rain = 0
KNH1 111021Z 30012KT 08/01 A2971 RMK A01 T00810005  RH  059%=      5-min Rain = 0
KNH1 111022Z 29013KT 08/01 A2972 RMK A01 T00820006  RH  059%=      5-min Rain = 0
KNH1 111023Z 29012KT 08/01 A2972 RMK A01 T00830006  RH  059%=      5-min Rain = 0
KNH1 111024Z 29012KT 08/01 A2972 RMK A01 T00830006  RH  058%=      5-min Rain = 0
KNH1 111025Z 29013KT 08/01 A2972 RMK A01 T00820006  RH  058%=      5-min Rain = 0
KNH1 111026Z 29011KT 08/01 A2972 RMK A01 T00820005  RH  058%=      5-min Rain = 0
KNH1 111027Z 29011KT 08/01 A2972 RMK A01 T00820006  RH  058%=      5-min Rain = 0
KNH1 111028Z 29012KT 08/01 A2972 RMK A01 T00820006  RH  059%=      5-min Rain = 0
KNH1 111029Z 29013KT 08/01 A2972 RMK A01 T00820006  RH  059%=      5-min Rain = 0
KNH1 111030Z 29011KT 08/01 A2972 RMK A01 T00830006  RH  059%=      5-min Rain = 0
KNH1 111031Z 30009KT 08/01 A2973 RMK A01 T00830006  RH  058%=      5-min Rain = 0
KNH1 111032Z 30011KT 08/01 A2973 RMK A01 T00830007  RH  059%=      5-min Rain = 0
KNH1 111033Z 32008KT 08/01 A2973 RMK A01 T00830007  RH  059%=      5-min Rain = 0
KNH1 111034Z 32010G16KT 09/01 A2973 RMK A01 T00850009  RH  059%=      5-min Rain = 0
KNH1 111035Z 33016KT 09/01 A2973 RMK A01 T00860013  RH  060%=      5-min Rain = 0
KNH1 111036Z 33013G20KT 09/02 A2973 RMK A01 T00890016  RH  060%=      5-min Rain = 0
KNH1 111037Z 34019KT 09/02 A2973 RMK A01 T00900017  RH  060%=      5-min Rain = 0
KNH1 111038Z 33020KT 09/02 A2973 RMK A01 T00910021  RH  062%=      5-min Rain = 0
KNH1 111039Z 34019KT 09/02 A2973 RMK A01 T00920023  RH  062%=      5-min Rain = 0
KNH1 111040Z 34019KT 09/03 A2973 RMK A01 T00930025  RH  063%=      5-min Rain = 0
KNH1 111041Z 35017KT 09/03 A2974 RMK A01 T00920025  RH  063%=      5-min Rain = 0
KNH1 111042Z 35020KT 09/03 A2974 RMK A01 T00920025  RH  063%=      5-min Rain = 0
KNH1 111043Z 35017G22KT 09/03 A2974 RMK A01 T00910025  RH  063%=      5-min Rain = 0
KNH1 111044Z 35018G24KT 09/03 A2974 RMK A01 T00910025  RH  063%=      5-min Rain = 0
KNH1 111045Z 35015KT 09/03 A2974 RMK A01 T00910025  RH  063%=      5-min Rain = 0
KNH1 111046Z 01017G24KT 09/03 A2974 RMK A01 T00910025  RH  063%=      5-min Rain = 0
KNH1 111047Z 00018KT 09/03 A2974 RMK A01 T00910025  RH  064%=      5-min Rain = 0
KNH1 111048Z 36017G22KT 09/03 A2974 RMK A01 T00910025  RH  064%=      5-min Rain = 0
KNH1 111049Z 36018G25KT 09/03 A2974 RMK A01 T00900025  RH  064%=      5-min Rain = 0
KNH1 111050Z 00020G25KT 09/03 A2974 RMK A01 T00900025  RH  064%=      5-min Rain = 0
KNH1 111051Z 00019G25KT 09/03 A2974 RMK A01 T00900025  RH  064%=      5-min Rain = 0
KNH1 111052Z 36021KT 09/03 A2974 RMK A01 T00900025  RH  064%=      5-min Rain = 0
KNH1 111053Z 35020G25KT 09/03 A2974 RMK A01 T00900025  RH  064%=      5-min Rain = 0
KNH1 111054Z 36019KT 09/03 A2974 RMK A01 T00900025  RH  064%=      5-min Rain = 0
KNH1 111055Z 36014KT 09/02 A2974 RMK A01 T00890024  RH  064%=      5-min Rain = 0
KNH1 111056Z 36017G24KT 09/02 A2974 RMK A01 T00890024  RH  064%=      5-min Rain = 0
KNH1 111057Z 01017G22KT 09/02 A2974 RMK A01 T00880023  RH  063%=      5-min Rain = 0
KNH1 111058Z 36020G26KT 09/02 A2974 RMK A01 T00890022  RH  063%=      5-min Rain = 0
KNH1 111059Z 00021KT 09/02 A2974 RMK A01 T00890021  RH  063%=      5-min Rain = 0
KNH1 111100Z 36019KT 09/02 A2974 RMK A01 T00890020  RH  062%=      5-min Rain = 0
KNH1 111101Z 01017G23KT 09/02 A2974 RMK A01 T00890020  RH  062%=      5-min Rain = 0
KNH1 111102Z 00016KT 09/02 A2975 RMK A01 T00890020  RH  062%=      5-min Rain = 0
KNH1 111103Z 00017KT 09/02 A2975 RMK A01 T00880020  RH  062%=      5-min Rain = 0
KNH1 111104Z 36022G27KT 09/02 A2975 RMK A01 T00880019  RH  062%=      5-min Rain = 0
KNH1 111105Z 00018G25KT 09/02 A2974 RMK A01 T00880017  RH  061%=      5-min Rain = 0
KNH1 111106Z 01013G18KT 09/02 A2975 RMK A01 T00880016  RH  061%=      5-min Rain = 0
KNH1 111107Z 01015KT 09/02 A2975 RMK A01 T00880016  RH  061%=      5-min Rain = 0
KNH1 111108Z 01021G29KT 09/02 A2975 RMK A01 T00880016  RH  060%=      5-min Rain = 0
KNH1 111109Z 36024G34KT 09/01 A2975 RMK A01 T00880014  RH  060%=      5-min Rain = 0
KNH1 111110Z 01023KT 09/01 A2975 RMK A01 T00880013  RH  059%=      5-min Rain = 0
KNH1 111111Z 01018G23KT 09/01 A2975 RMK A01 T00880013  RH  059%=      5-min Rain = 0
KNH1 111112Z 36017G23KT 09/01 A2976 RMK A01 T00880013  RH  059%=      5-min Rain = 0
KNH1 111113Z 01019G33KT 09/01 A2976 RMK A01 T00870013  RH  059%=      5-min Rain = 0
KNH1 111114Z 01023G29KT 09/01 A2976 RMK A01 T00860012  RH  060%=      5-min Rain = 0
KNH1 111115Z 01015G24KT 09/01 A2976 RMK A01 T00860012  RH  060%=      5-min Rain = 0
KNH1 111116Z 01019G26KT 09/01 A2976 RMK A01 T00860012  RH  060%=      5-min Rain = 0
KNH1 111117Z 01019G28KT 09/01 A2976 RMK A01 T00850012  RH  060%=      5-min Rain = 0
KNH1 111118Z 01016G22KT 09/01 A2976 RMK A01 T00850012  RH  060%=      5-min Rain = 0
KNH1 111119Z 01017G23KT 08/01 A2976 RMK A01 T00840012  RH  061%=      5-min Rain = 0
KNH1 111120Z 01016G24KT 08/01 A2976 RMK A01 T00840012  RH  061%=      5-min Rain = 0
KNH1 111121Z 01013G18KT 08/01 A2977 RMK A01 T00830012  RH  061%=      5-min Rain = 0
KNH1 111122Z 01012G17KT 08/01 A2977 RMK A01 T00830013  RH  061%=      5-min Rain = 0
KNH1 111123Z 00014KT 08/01 A2977 RMK A01 T00830013  RH  061%=      5-min Rain = 0
KNH1 111124Z 01016G23KT 08/01 A2977 RMK A01 T00820013  RH  062%=      5-min Rain = 0
KNH1 111125Z 00013KT 08/01 A2977 RMK A01 T00820013  RH  062%=      5-min Rain = 0
KNH1 111126Z 01017G25KT 08/01 A2977 RMK A01 T00820013  RH  062%=      5-min Rain = 0
KNH1 111127Z 00021KT 08/01 A2977 RMK A01 T00820012  RH  061%=      5-min Rain = 0
KNH1 111128Z 00022G27KT 08/01 A2977 RMK A01 T00820011  RH  061%=      5-min Rain = 0
KNH1 111129Z 01019KT 08/01 A2977 RMK A01 T00830012  RH  061%=      5-min Rain = 0
KNH1 111130Z 01015KT 08/01 A2977 RMK A01 T00830012  RH  061%=      5-min Rain = 0
KNH1 111131Z 00013KT 08/01 A2977 RMK A01 T00820012  RH  061%=      5-min Rain = 0
KNH1 111132Z 36015G22KT 08/01 A2977 RMK A01 T00820012  RH  062%=      5-min Rain = 0
KNH1 111133Z 01018KT 08/01 A2977 RMK A01 T00810013  RH  062%=      5-min Rain = 0
KNH1 111134Z 00018G23KT 08/01 A2977 RMK A01 T00810013  RH  062%=      5-min Rain = 0
KNH1 111135Z 00016G21KT 08/01 A2978 RMK A01 T00810013  RH  062%=      5-min Rain = 0
KNH1 111136Z 00014KT 08/01 A2978 RMK A01 T00810013  RH  062%=      5-min Rain = 0
KNH1 111137Z 00013KT 08/01 A2978 RMK A01 T00800013  RH  063%=      5-min Rain = 0
KNH1 111138Z 36015KT 08/01 A2978 RMK A01 T00800014  RH  063%=      5-min Rain = 0
KNH1 111139Z 35015KT 08/01 A2978 RMK A01 T00790014  RH  063%=      5-min Rain = 0
KNH1 111140Z 35014KT 08/01 A2978 RMK A01 T00790014  RH  063%=      5-min Rain = 0
KNH1 111141Z 35015KT 08/01 A2978 RMK A01 T00790014  RH  063%=      5-min Rain = 0
KNH1 111142Z 35016KT 08/01 A2978 RMK A01 T00790014  RH  063%=      5-min Rain = 0
KNH1 111143Z 35014G19KT 08/01 A2978 RMK A01 T00790014  RH  064%=      5-min Rain = 0
KNH1 111144Z 35020G25KT 08/01 A2979 RMK A01 T00790014  RH  064%=      5-min Rain = 0
KNH1 111145Z 35019KT 08/01 A2979 RMK A01 T00780013  RH  063%=      5-min Rain = 0
KNH1 111146Z 34021KT 08/01 A2979 RMK A01 T00780012  RH  063%=      5-min Rain = 0
KNH1 111147Z 35019G24KT 08/01 A2979 RMK A01 T00770011  RH  063%=      5-min Rain = 0
KNH1 111148Z 35024G30KT 08/01 A2979 RMK A01 T00760010  RH  063%=      5-min Rain = 0
KNH1 111149Z 35024G31KT 08/01 A2979 RMK A01 T00750009  RH  063%=      5-min Rain = 0
KNH1 111150Z 00025G30KT 08/01 A2979 RMK A01 T00750008  RH  063%=      5-min Rain = 0
KNH1 111151Z 35020G25KT 07/01 A2979 RMK A01 T00740008  RH  063%=      5-min Rain = 0
KNH1 111152Z 00023G36KT 07/01 A2979 RMK A01 T00730007  RH  063%=      5-min Rain = 0
KNH1 111153Z 00025G35KT 07/01 A2979 RMK A01 T00730006  RH  062%=      5-min Rain = 0
KNH1 111154Z 36023G28KT 07/01 A298 RMK A01 T00740006  RH  062%=      5-min Rain = 0
KNH1 111155Z 01020G26KT 07/01 A298 RMK A01 T00730005  RH  062%=      5-min Rain = 0
KNH1 111156Z 01021G28KT 07/01 A298 RMK A01 T00730005  RH  062%=      5-min Rain = 0
KNH1 111157Z 00019G24KT 07/01 A298 RMK A01 T00740005  RH  062%=      5-min Rain = 0
KNH1 111158Z 00018G23KT 07/01 A298 RMK A01 T00730005  RH  062%=      5-min Rain = 0
KNH1 111159Z 36020G25KT 07/01 A298 RMK A01 T00730005  RH  062%=      5-min Rain = 0
KNH1 111200Z 36019G27KT 07/01 A2981 RMK A01 T00730006  RH  062%=      5-min Rain = 0
KNH1 111201Z 35020G25KT 07/01 A2981 RMK A01 T00730006  RH  063%=      5-min Rain = 0
KNH1 111202Z 35024KT 07/01 A2981 RMK A01 T00720007  RH  063%=      5-min Rain = 0
KNH1 111203Z 35023G28KT 07/01 A2981 RMK A01 T00720008  RH  064%=      5-min Rain = 0
KNH1 111204Z 35019G26KT 07/01 A2981 RMK A01 T00710009  RH  064%=      5-min Rain = 0
KNH1 111205Z 36019KT 07/01 A2981 RMK A01 T00700008  RH  064%=      5-min Rain = 0
KNH1 111206Z 35022G28KT 07/01 A2982 RMK A01 T00700008  RH  065%=      5-min Rain = 0
KNH1 111207Z 35023G30KT 07/01 A2982 RMK A01 T00700007  RH  065%=      5-min Rain = 0
KNH1 111208Z 35023G28KT 07/01 A2982 RMK A01 T00690007  RH  064%=      5-min Rain = 0
KNH1 111209Z 35022G28KT 07/01 A2982 RMK A01 T00690007  RH  064%=      5-min Rain = 0
KNH1 111210Z 35023G30KT 07/01 A2982 RMK A01 T00680006  RH  065%=      5-min Rain = 0
KNH1 111211Z 36021G27KT 07/01 A2982 RMK A01 T00670005  RH  064%=      5-min Rain = 0
KNH1 111212Z 35020G26KT 07/00 A2982 RMK A01 T00660003  RH  064%=      5-min Rain = 0
KNH1 111213Z 35023G29KT 06/00 A2982 RMK A01 T00640001  RH  064%=      5-min Rain = 0
KNH1 111214Z 35023G28KT 06/00 A2983 RMK A01 T00630000  RH  064%=      5-min Rain = 0
KNH1 111215Z 34023KT 06/00 A2983 RMK A01 T006300-0  RH  064%=      5-min Rain = 0
KNH1 111216Z 35023G30KT 06/M00 A2983 RMK A01 T00611001  RH  064%=      5-min Rain = 0
KNH1 111217Z 35026KT 06/M00 A2983 RMK A01 T00611001  RH  065%=      5-min Rain = 0
KNH1 111218Z 34023G29KT 06/M00 A2983 RMK A01 T00601002  RH  065%=      5-min Rain = 0
KNH1 111219Z 35023G28KT 06/M00 A2983 RMK A01 T00591002  RH  065%=      5-min Rain = 0
KNH1 111220Z 35021KT 06/M00 A2983 RMK A01 T00591002  RH  065%=      5-min Rain = 0
KNH1 111221Z 36022G27KT 06/M00 A2983 RMK A01 T00581002  RH  065%=      5-min Rain = 0
KNH1 111222Z 00019G24KT 06/M00 A2983 RMK A01 T00571002  RH  065%=      5-min Rain = 0
KNH1 111223Z 36018KT 06/M00 A2983 RMK A01 T00571003  RH  066%=      5-min Rain = 0
KNH1 111224Z 34018G26KT 06/M00 A2984 RMK A01 T00561003  RH  066%=      5-min Rain = 0
KNH1 111225Z 35021KT 06/M00 A2983 RMK A01 T00561003  RH  066%=      5-min Rain = 0
KNH1 111226Z 35019G25KT 06/M00 A2984 RMK A01 T00561003  RH  066%=      5-min Rain = 0
KNH1 111227Z 35021G27KT 06/M00 A2984 RMK A01 T00551004  RH  066%=      5-min Rain = 0
KNH1 111228Z 35024G29KT 05/M00 A2984 RMK A01 T00541003  RH  066%=      5-min Rain = 0
KNH1 111229Z 35020KT 05/M00 A2984 RMK A01 T00541004  RH  066%=      5-min Rain = 0
KNH1 111230Z 35020G26KT 05/M00 A2984 RMK A01 T00541004  RH  066%=      5-min Rain = 0
KNH1 111231Z 36021KT 05/M00 A2984 RMK A01 T00531004  RH  067%=      5-min Rain = 0
KNH1 111232Z 35013G18KT 05/M00 A2984 RMK A01 T00531004  RH  067%=      5-min Rain = 0
KNH1 111233Z 35018G23KT 05/M00 A2984 RMK A01 T00531004  RH  067%=      5-min Rain = 0
KNH1 111234Z 35021G30KT 05/M01 A2984 RMK A01 T00521005  RH  067%=      5-min Rain = 0
KNH1 111235Z 35020G29KT 05/M01 A2985 RMK A01 T00521005  RH  067%=      5-min Rain = 0
KNH1 111236Z 35020G27KT 05/M01 A2985 RMK A01 T00521005  RH  067%=      5-min Rain = 0
KNH1 111237Z 34022G27KT 05/M01 A2985 RMK A01 T00511005  RH  067%=      5-min Rain = 0
KNH1 111238Z 34023G29KT 05/M01 A2985 RMK A01 T00511005  RH  067%=      5-min Rain = 0
KNH1 111239Z 34019KT 05/M01 A2985 RMK A01 T00511005  RH  067%=      5-min Rain = 0
KNH1 111240Z 35020G25KT 05/M01 A2985 RMK A01 T00511005  RH  067%=      5-min Rain = 0
KNH1 111241Z 35021KT 05/M01 A2985 RMK A01 T00511005  RH  067%=      5-min Rain = 0
KNH1 111242Z 36021G28KT 05/M01 A2985 RMK A01 T00511005  RH  067%=      5-min Rain = 0
KNH1 111243Z 36017KT 05/M01 A2985 RMK A01 T00501005  RH  067%=      5-min Rain = 0
KNH1 111244Z 35018KT 05/M01 A2985 RMK A01 T00501006  RH  067%=      5-min Rain = 0
KNH1 111245Z 35016G21KT 05/M01 A2986 RMK A01 T00501005  RH  068%=      5-min Rain = 0
KNH1 111246Z 36016G24KT 05/M01 A2986 RMK A01 T00501005  RH  068%=      5-min Rain = 0
KNH1 111247Z 00016KT 05/M01 A2986 RMK A01 T00501005  RH  068%=      5-min Rain = 0
KNH1 111248Z 00015G22KT 05/M01 A2986 RMK A01 T00501005  RH  068%=      5-min Rain = 0
KNH1 111249Z 00017KT 05/M01 A2986 RMK A01 T00501005  RH  068%=      5-min Rain = 0
KNH1 111250Z 36017G23KT 05/M01 A2986 RMK A01 T00501006  RH  067%=      5-min Rain = 0
KNH1 111251Z 35019G24KT 05/M01 A2986 RMK A01 T00501006  RH  067%=      5-min Rain = 0
KNH1 111252Z 00020G25KT 05/M01 A2986 RMK A01 T00491006  RH  067%=      5-min Rain = 0
KNH1 111253Z 01020KT 05/M01 A2986 RMK A01 T00491007  RH  067%=      5-min Rain = 0
KNH1 111254Z 01018G25KT 05/M01 A2986 RMK A01 T00481007  RH  067%=      5-min Rain = 0
KNH1 111255Z 01018G23KT 05/M01 A2986 RMK A01 T00481007  RH  067%=      5-min Rain = 0
KNH1 111256Z 01021G26KT 05/M01 A2986 RMK A01 T00481007  RH  068%=      5-min Rain = 0
KNH1 111257Z 01015G24KT 05/M01 A2986 RMK A01 T00471007  RH  068%=      5-min Rain = 0
KNH1 111258Z 00016KT 05/M01 A2986 RMK A01 T00471007  RH  068%=      5-min Rain = 0
KNH1 111259Z 00016KT 05/M01 A2986 RMK A01 T00471007  RH  068%=      5-min Rain = 0
KNH1 111300Z 00018KT 05/M01 A2986 RMK A01 T00471007  RH  068%=      5-min Rain = 0
KNH1 111301Z 36016KT 05/M01 A2987 RMK A01 T00471007  RH  068%=      5-min Rain = 0
KNH1 111302Z 36018KT 05/M01 A2987 RMK A01 T00461007  RH  068%=      5-min Rain = 0
KNH1 111303Z 35019G24KT 05/M01 A2987 RMK A01 T00471007  RH  068%=      5-min Rain = 0
KNH1 111304Z 01014G20KT 05/M01 A2987 RMK A01 T00471007  RH  068%=      5-min Rain = 0
KNH1 111305Z 01018G24KT 05/M01 A2987 RMK A01 T00471007  RH  068%=      5-min Rain = 0
KNH1 111306Z 36015G20KT 05/M01 A2987 RMK A01 T00461007  RH  068%=      5-min Rain = 0
KNH1 111307Z 35016G23KT 05/M01 A2988 RMK A01 T00461007  RH  068%=      5-min Rain = 0
KNH1 111308Z 35018G25KT 05/M01 A2988 RMK A01 T00461008  RH  068%=      5-min Rain = 0
KNH1 111309Z 35021G26KT 05/M01 A2988 RMK A01 T00471008  RH  068%=      5-min Rain = 0
KNH1 111310Z 35020G26KT 05/M01 A2988 RMK A01 T00461010  RH  067%=      5-min Rain = 0
KNH1 111311Z 34021G27KT 05/M01 A2988 RMK A01 T00461010  RH  067%=      5-min Rain = 0
KNH1 111312Z 35019KT 05/M01 A2988 RMK A01 T00451011  RH  067%=      5-min Rain = 0
KNH1 111313Z 35021KT 05/M01 A2988 RMK A01 T00451011  RH  067%=      5-min Rain = 0
KNH1 111314Z 35017G22KT 05/M01 A2988 RMK A01 T00451011  RH  067%=      5-min Rain = 0
KNH1 111315Z 34020KT 04/M01 A2989 RMK A01 T00441012  RH  067%=      5-min Rain = 0
KNH1 111316Z 35020KT 04/M01 A2988 RMK A01 T00441013  RH  067%=      5-min Rain = 0
KNH1 111317Z 35020G26KT 04/M01 A2989 RMK A01 T00431014  RH  067%=      5-min Rain = 0
KNH1 111318Z 34019KT 04/M01 A2988 RMK A01 T00421014  RH  067%=      5-min Rain = 0
KNH1 111319Z 35019G26KT 04/M02 A2989 RMK A01 T00421015  RH  067%=      5-min Rain = 0
KNH1 111320Z 35018KT 04/M02 A2989 RMK A01 T00411015  RH  067%=      5-min Rain = 0
KNH1 111321Z 35021KT 04/M02 A2989 RMK A01 T00411015  RH  067%=      5-min Rain = 0
KNH1 111322Z 35020G26KT 04/M02 A2989 RMK A01 T00411015  RH  067%=      5-min Rain = 0
KNH1 111323Z 35019KT 04/M01 A2989 RMK A01 T00411014  RH  067%=      5-min Rain = 0
KNH1 111324Z 35018G23KT 04/M01 A2989 RMK A01 T00411014  RH  067%=      5-min Rain = 0
KNH1 111325Z 35018KT 04/M02 A2989 RMK A01 T00401015  RH  067%=      5-min Rain = 0
KNH1 111326Z 35017KT 04/M01 A2989 RMK A01 T00411014  RH  067%=      5-min Rain = 0
KNH1 111327Z 36022G30KT 04/M02 A2989 RMK A01 T00401015  RH  067%=      5-min Rain = 0
KNH1 111328Z 01021G29KT 04/M02 A2989 RMK A01 T00401015  RH  067%=      5-min Rain = 0
KNH1 111329Z 00018G27KT 04/M02 A2989 RMK A01 T00401015  RH  067%=      5-min Rain = 0
KNH1 111330Z 01017G22KT 04/M02 A2989 RMK A01 T00401016  RH  067%=      5-min Rain = 0
KNH1 111331Z 00016KT 04/M02 A299 RMK A01 T00401016  RH  067%=      5-min Rain = 0
KNH1 111332Z 00016G21KT 04/M02 A2989 RMK A01 T00401017  RH  066%=      5-min Rain = 0
KNH1 111333Z 00013G19KT 04/M02 A299 RMK A01 T00401017  RH  066%=      5-min Rain = 0
KNH1 111334Z 00013KT 04/M02 A299 RMK A01 T00401017  RH  067%=      5-min Rain = 0
KNH1 111335Z 36016G23KT 04/M02 A299 RMK A01 T00391017  RH  067%=      5-min Rain = 0
KNH1 111336Z 00015G22KT 04/M02 A299 RMK A01 T00391017  RH  067%=      5-min Rain = 0
KNH1 111337Z 00018KT 04/M02 A299 RMK A01 T00381017  RH  067%=      5-min Rain = 0
KNH1 111338Z 00016KT 04/M02 A299 RMK A01 T00381018  RH  067%=      5-min Rain = 0
KNH1 111339Z 01017G22KT 04/M02 A299 RMK A01 T00371018  RH  067%=      5-min Rain = 0
KNH1 111340Z 00012G18KT 04/M02 A299 RMK A01 T00371018  RH  067%=      5-min Rain = 0
KNH1 111341Z 00017G22KT 04/M02 A299 RMK A01 T00361019  RH  067%=      5-min Rain = 0
KNH1 111342Z 01016G22KT 04/M02 A299 RMK A01 T00361019  RH  067%=      5-min Rain = 0
KNH1 111343Z 01014G20KT 04/M02 A299 RMK A01 T00361019  RH  067%=      5-min Rain = 0
KNH1 111344Z 00017G24KT 04/M02 A299 RMK A01 T00361019  RH  067%=      5-min Rain = 0
KNH1 111345Z 36015G25KT 04/M02 A2991 RMK A01 T00361019  RH  067%=      5-min Rain = 0
KNH1 111346Z 00018G23KT 04/M02 A2991 RMK A01 T00361019  RH  067%=      5-min Rain = 0
KNH1 111347Z 36016G22KT 04/M02 A2991 RMK A01 T00361019  RH  067%=      5-min Rain = 0
KNH1 111348Z 00016KT 04/M02 A2991 RMK A01 T00361019  RH  067%=      5-min Rain = 0
KNH1 111349Z 01017G22KT 04/M02 A2991 RMK A01 T00361019  RH  067%=      5-min Rain = 0
KNH1 111350Z 01018KT 04/M02 A2991 RMK A01 T00351019  RH  067%=      5-min Rain = 0
KNH1 111351Z 01020G25KT 04/M02 A2991 RMK A01 T00351019  RH  067%=      5-min Rain = 0
KNH1 111352Z 00018KT 04/M02 A2991 RMK A01 T00351019  RH  068%=      5-min Rain = 0
KNH1 111353Z 01016G24KT 04/M02 A2991 RMK A01 T00351020  RH  068%=      5-min Rain = 0
KNH1 111354Z 01019G25KT 03/M02 A2991 RMK A01 T00341020  RH  068%=      5-min Rain = 0
KNH1 111355Z 00019G28KT 03/M02 A2991 RMK A01 T00341020  RH  068%=      5-min Rain = 0
KNH1 111356Z 36021KT 03/M02 A2992 RMK A01 T00341020  RH  068%=      5-min Rain = 0
KNH1 111357Z 36018G24KT 03/M02 A2992 RMK A01 T00341020  RH  068%=      5-min Rain = 0
KNH1 111358Z 00018G27KT 03/M02 A2992 RMK A01 T00341020  RH  068%=      5-min Rain = 0
KNH1 111359Z 36015G23KT 03/M02 A2992 RMK A01 T00341020  RH  068%=      5-min Rain = 0
KNH1 111400Z 00013KT 03/M02 A2992 RMK A01 T00341020  RH  068%=      5-min Rain = 0
KNH1 111401Z 36014G21KT 03/M02 A2992 RMK A01 T00331020  RH  068%=      5-min Rain = 0
KNH1 111402Z 36018KT 03/M02 A2992 RMK A01 T00331020  RH  068%=      5-min Rain = 0
KNH1 111403Z 36014KT 03/M02 A2992 RMK A01 T00331020  RH  068%=      5-min Rain = 0
KNH1 111404Z 36015KT 03/M02 A2993 RMK A01 T00331020  RH  068%=      5-min Rain = 0
KNH1 111405Z 36018KT 03/M02 A2993 RMK A01 T00331020  RH  068%=      5-min Rain = 0
KNH1 111406Z 36016G21KT 03/M02 A2993 RMK A01 T00331020  RH  068%=      5-min Rain = 0
KNH1 111407Z 35017KT 03/M02 A2993 RMK A01 T00331020  RH  068%=      5-min Rain = 0
KNH1 111408Z 36017G23KT 03/M02 A2993 RMK A01 T00331020  RH  068%=      5-min Rain = 0
KNH1 111409Z 36019G26KT 03/M02 A2993 RMK A01 T00321020  RH  068%=      5-min Rain = 0
KNH1 111410Z 36021G26KT 03/M02 A2993 RMK A01 T00321021  RH  068%=      5-min Rain = 0
KNH1 111411Z 36017KT 03/M02 A2993 RMK A01 T00311023  RH  068%=      5-min Rain = 0
KNH1 111412Z 35022G27KT 03/M02 A2993 RMK A01 T00311023  RH  068%=      5-min Rain = 0
KNH1 111413Z 35018G23KT 03/M03 A2993 RMK A01 T00301025  RH  067%=      5-min Rain = 0
KNH1 111414Z 35022G28KT 03/M03 A2994 RMK A01 T00301026  RH  067%=      5-min Rain = 0
KNH1 111415Z 35024KT 03/M03 A2994 RMK A01 T00291027  RH  067%=      5-min Rain = 0
KNH1 111416Z 35021KT 03/M03 A2994 RMK A01 T00281028  RH  067%=      5-min Rain = 0
KNH1 111417Z 36021G28KT 03/M03 A2994 RMK A01 T00281028  RH  067%=      5-min Rain = 0
KNH1 111418Z 35018KT 03/M03 A2994 RMK A01 T00281027  RH  067%=      5-min Rain = 0
KNH1 111419Z 35019G25KT 03/M03 A2994 RMK A01 T00271028  RH  067%=      5-min Rain = 0
KNH1 111420Z 35022G28KT 03/M03 A2994 RMK A01 T00271029  RH  067%=      5-min Rain = 0
KNH1 111421Z 35023G30KT 03/M03 A2994 RMK A01 T00261030  RH  067%=      5-min Rain = 0
KNH1 111422Z 35022KT 03/M03 A2995 RMK A01 T00251031  RH  067%=      5-min Rain = 0
KNH1 111423Z 35019G24KT 03/M03 A2994 RMK A01 T00251031  RH  067%=      5-min Rain = 0
KNH1 111424Z 35018KT 02/M03 A2995 RMK A01 T00241031  RH  067%=      5-min Rain = 0
KNH1 111425Z 35018G25KT 02/M03 A2995 RMK A01 T00241031  RH  067%=      5-min Rain = 0
KNH1 111426Z 35016KT 02/M03 A2995 RMK A01 T00241032  RH  067%=      5-min Rain = 0
KNH1 111427Z 35015KT 02/M03 A2995 RMK A01 T00231032  RH  067%=      5-min Rain = 0
KNH1 111428Z 35020G25KT 02/M03 A2995 RMK A01 T00241032  RH  067%=      5-min Rain = 0
KNH1 111429Z 35019G24KT 02/M03 A2995 RMK A01 T00231032  RH  067%=      5-min Rain = 0
KNH1 111430Z 36017KT 02/M03 A2995 RMK A01 T00231032  RH  067%=      5-min Rain = 0
KNH1 111431Z 35015G20KT 02/M03 A2995 RMK A01 T00231032  RH  067%=      5-min Rain = 0
KNH1 111432Z 36016G23KT 02/M03 A2995 RMK A01 T00231032  RH  067%=      5-min Rain = 0
KNH1 111433Z 35019G25KT 02/M03 A2995 RMK A01 T00231032  RH  067%=      5-min Rain = 0
KNH1 111434Z 35017KT 02/M03 A2995 RMK A01 T00231032  RH  067%=      5-min Rain = 0
KNH1 111435Z 35020KT 02/M03 A2995 RMK A01 T00231032  RH  067%=      5-min Rain = 0
KNH1 111436Z 36018G24KT 02/M03 A2996 RMK A01 T00231032  RH  067%=      5-min Rain = 0
KNH1 111437Z 36018KT 02/M03 A2996 RMK A01 T00231033  RH  067%=      5-min Rain = 0
KNH1 111438Z 35018KT 02/M03 A2996 RMK A01 T00231033  RH  067%=      5-min Rain = 0
KNH1 111439Z 35018KT 02/M03 A2996 RMK A01 T00231033  RH  067%=      5-min Rain = 0
KNH1 111440Z 35015G21KT 02/M03 A2996 RMK A01 T00231033  RH  066%=      5-min Rain = 0
KNH1 111441Z 35016KT 02/M03 A2996 RMK A01 T00231033  RH  066%=      5-min Rain = 0
KNH1 111442Z 35017KT 02/M03 A2996 RMK A01 T00231034  RH  066%=      5-min Rain = 0
KNH1 111443Z 35021G27KT 02/M04 A2996 RMK A01 T00231035  RH  066%=      5-min Rain = 0
KNH1 111444Z 35021KT 02/M04 A2996 RMK A01 T00231037  RH  065%=      5-min Rain = 0
KNH1 111445Z 35023G28KT 02/M04 A2997 RMK A01 T00221038  RH  064%=      5-min Rain = 0
KNH1 111446Z 35020KT 02/M04 A2997 RMK A01 T00221040  RH  064%=      5-min Rain = 0
KNH1 111447Z 35021KT 02/M04 A2997 RMK A01 T00211040  RH  064%=      5-min Rain = 0
KNH1 111448Z 35022KT 02/M04 A2997 RMK A01 T00211041  RH  064%=      5-min Rain = 0
KNH1 111449Z 35017G23KT 02/M04 A2997 RMK A01 T00201041  RH  064%=      5-min Rain = 0
KNH1 111450Z 35019KT 02/M04 A2997 RMK A01 T00201042  RH  063%=      5-min Rain = 0
KNH1 111451Z 34018G23KT 02/M04 A2997 RMK A01 T00201044  RH  063%=      5-min Rain = 0
KNH1 111452Z 35020KT 02/M05 A2997 RMK A01 T00191046  RH  062%=      5-min Rain = 0
KNH1 111453Z 34017KT 02/M05 A2997 RMK A01 T00191047  RH  062%=      5-min Rain = 0
KNH1 111454Z 34021KT 02/M05 A2997 RMK A01 T00181047  RH  062%=      5-min Rain = 0
KNH1 111455Z 00020G29KT 02/M05 A2998 RMK A01 T00181047  RH  062%=      5-min Rain = 0
KNH1 111456Z 35023KT 02/M05 A2997 RMK A01 T00191048  RH  061%=      5-min Rain = 0
KNH1 111457Z 35024G30KT 02/M05 A2998 RMK A01 T00181051  RH  060%=      5-min Rain = 0
KNH1 111458Z 35024G31KT 02/M05 A2998 RMK A01 T00181052  RH  060%=      5-min Rain = 0
KNH1 111459Z 35022G30KT 02/M06 A2998 RMK A01 T00181055  RH  058%=      5-min Rain = 0
KNH1 111500Z 35020G27KT 02/M06 A2998 RMK A01 T00181056  RH  058%=      5-min Rain = 0
KNH1 111501Z 35024G30KT 02/M06 A2998 RMK A01 T00181057  RH  057%=      5-min Rain = 0
KNH1 111502Z 35021G28KT 02/M06 A2998 RMK A01 T00181058  RH  057%=      5-min Rain = 0
KNH1 111503Z 35020G26KT 02/M06 A2998 RMK A01 T00181060  RH  056%=      5-min Rain = 0
KNH1 111504Z 35024KT 02/M06 A2998 RMK A01 T00181061  RH  056%=      5-min Rain = 0
KNH1 111505Z 35025G30KT 02/M06 A2999 RMK A01 T00181062  RH  055%=      5-min Rain = 0
KNH1 111506Z 35020G27KT 02/M06 A2999 RMK A01 T00171063  RH  055%=      5-min Rain = 0
KNH1 111507Z 36019KT 02/M06 A2999 RMK A01 T00171063  RH  055%=      5-min Rain = 0
KNH1 111508Z 35023G31KT 02/M06 A2999 RMK A01 T00171064  RH  055%=      5-min Rain = 0
KNH1 111509Z 36023G29KT 02/M06 A2999 RMK A01 T00171064  RH  055%=      5-min Rain = 0
KNH1 111510Z 00019G24KT 02/M07 A2999 RMK A01 T00161066  RH  054%=      5-min Rain = 0
KNH1 111511Z 36017G22KT 02/M07 A30 RMK A01 T00161065  RH  055%=      5-min Rain = 0
KNH1 111512Z 35021KT 02/M07 A30 RMK A01 T00161065  RH  055%=      5-min Rain = 0
KNH1 111513Z 35022KT 02/M07 A30 RMK A01 T00161066  RH  054%=      5-min Rain = 0
KNH1 111514Z 35018G28KT 02/M07 A30 RMK A01 T00161066  RH  054%=      5-min Rain = 0
KNH1 111515Z 35022KT 02/M07 A30 RMK A01 T00161065  RH  055%=      5-min Rain = 0
KNH1 111516Z 36021G26KT 02/M07 A30 RMK A01 T00171065  RH  054%=      5-min Rain = 0
KNH1 111517Z 35021G27KT 02/M07 A30 RMK A01 T00161066  RH  054%=      5-min Rain = 0
KNH1 111518Z 36022G28KT 02/M07 A30 RMK A01 T00171067  RH  054%=      5-min Rain = 0
KNH1 111519Z 01021G26KT 02/M07 A30 RMK A01 T00171068  RH  054%=      5-min Rain = 0
KNH1 111520Z 36021G27KT 02/M07 A3001 RMK A01 T00171068  RH  054%=      5-min Rain = 0
KNH1 111521Z 35022G28KT 02/M07 A3001 RMK A01 T00171067  RH  054%=      5-min Rain = 0
KNH1 111522Z 36021G26KT 02/M07 A3001 RMK A01 T00171068  RH  053%=      5-min Rain = 0
KNH1 111523Z 36017G22KT 02/M07 A3001 RMK A01 T00171068  RH  053%=      5-min Rain = 0
KNH1 111524Z 00016G22KT 02/M07 A3001 RMK A01 T00171068  RH  053%=      5-min Rain = 0
KNH1 111525Z 36018G24KT 02/M07 A3001 RMK A01 T00181067  RH  053%=      5-min Rain = 0
KNH1 111526Z 36022G28KT 02/M07 A3001 RMK A01 T00181067  RH  053%=      5-min Rain = 0
KNH1 111527Z 36020G26KT 02/M07 A3001 RMK A01 T00191067  RH  053%=      5-min Rain = 0
KNH1 111528Z 35023KT 02/M07 A3001 RMK A01 T00191067  RH  053%=      5-min Rain = 0
KNH1 111529Z 01022KT 02/M07 A3001 RMK A01 T00191067  RH  053%=      5-min Rain = 0
KNH1 111530Z 00020G25KT 02/M07 A3001 RMK A01 T00191067  RH  053%=      5-min Rain = 0
KNH1 111531Z 36022G28KT 02/M07 A3001 RMK A01 T00191067  RH  053%=      5-min Rain = 0
KNH1 111532Z 36023G28KT 02/M07 A3002 RMK A01 T00201067  RH  053%=      5-min Rain = 0
KNH1 111533Z 35020G28KT 02/M07 A3002 RMK A01 T00201066  RH  053%=      5-min Rain = 0
KNH1 111534Z 36022G30KT 02/M07 A3002 RMK A01 T00211066  RH  052%=      5-min Rain = 0
KNH1 111535Z 00019G26KT 02/M07 A3002 RMK A01 T00211067  RH  052%=      5-min Rain = 0
KNH1 111536Z 00018G24KT 02/M07 A3002 RMK A01 T00211068  RH  052%=      5-min Rain = 0
KNH1 111537Z 36018G25KT 02/M07 A3003 RMK A01 T00211067  RH  052%=      5-min Rain = 0
KNH1 111538Z 00022G28KT 02/M07 A3003 RMK A01 T00211067  RH  052%=      5-min Rain = 0
KNH1 111539Z 35022KT 02/M07 A3003 RMK A01 T00211067  RH  052%=      5-min Rain = 0
KNH1 111540Z 35021G28KT 02/M07 A3003 RMK A01 T00201067  RH  052%=      5-min Rain = 0
KNH1 111541Z 00019KT 02/M07 A3003 RMK A01 T00211067  RH  052%=      5-min Rain = 0
KNH1 111542Z 35023G29KT 02/M07 A3003 RMK A01 T00201067  RH  052%=      5-min Rain = 0
KNH1 111543Z 35024G29KT 02/M07 A3003 RMK A01 T00201068  RH  052%=      5-min Rain = 0
KNH1 111544Z 36022G29KT 02/M07 A3004 RMK A01 T00211068  RH  052%=      5-min Rain = 0
KNH1 111545Z 00022KT 02/M07 A3004 RMK A01 T00211069  RH  051%=      5-min Rain = 0
KNH1 111546Z 36023G30KT 02/M07 A3004 RMK A01 T00221069  RH  051%=      5-min Rain = 0
KNH1 111547Z 36019G27KT 02/M07 A3004 RMK A01 T00211069  RH  051%=      5-min Rain = 0
KNH1 111548Z 00021G31KT 02/M07 A3004 RMK A01 T00211069  RH  051%=      5-min Rain = 0
KNH1 111549Z 00018G23KT 02/M07 A3004 RMK A01 T00211070  RH  051%=      5-min Rain = 0
KNH1 111550Z 01021G26KT 02/M07 A3004 RMK A01 T00211070  RH  051%=      5-min Rain = 0
KNH1 111551Z 01019G27KT 02/M07 A3004 RMK A01 T00211070  RH  051%=      5-min Rain = 0
KNH1 111552Z 00017KT 02/M07 A3005 RMK A01 T00211070  RH  051%=      5-min Rain = 0
KNH1 111553Z 00020G25KT 02/M07 A3005 RMK A01 T00201070  RH  051%=      5-min Rain = 0
KNH1 111554Z 36018KT 02/M07 A3005 RMK A01 T00211070  RH  051%=      5-min Rain = 0
KNH1 111555Z 00021KT 02/M07 A3005 RMK A01 T00201070  RH  051%=      5-min Rain = 0
KNH1 111556Z 36019G24KT 02/M07 A3006 RMK A01 T00211069  RH  051%=      5-min Rain = 0
KNH1 111557Z 35021KT 02/M07 A3006 RMK A01 T00211069  RH  051%=      5-min Rain = 0
KNH1 111558Z 35022KT 02/M07 A3006 RMK A01 T00211069  RH  051%=      5-min Rain = 0
KNH1 111559Z 35021KT 02/M07 A3006 RMK A01 T00221069  RH  051%=      5-min Rain = 0
KNH1 111600Z 36019G28KT 02/M07 A3006 RMK A01 T00221069  RH  051%=      5-min Rain = 0
KNH1 111601Z 00018KT 02/M07 A3006 RMK A01 T00221069  RH  051%=      5-min Rain = 0
KNH1 111602Z 36016G23KT 02/M07 A3006 RMK A01 T00221070  RH  051%=      5-min Rain = 0
KNH1 111603Z 35022G27KT 02/M07 A3006 RMK A01 T00221070  RH  051%=      5-min Rain = 0
KNH1 111604Z 36018KT 02/M07 A3006 RMK A01 T00231070  RH  050%=      5-min Rain = 0
KNH1 111605Z 35020G25KT 02/M07 A3006 RMK A01 T00231069  RH  050%=      5-min Rain = 0
KNH1 111606Z 36017G22KT 02/M07 A3006 RMK A01 T00241069  RH  050%=      5-min Rain = 0
KNH1 111607Z 35020G30KT 02/M07 A3006 RMK A01 T00241069  RH  050%=      5-min Rain = 0
KNH1 111608Z 36019G25KT 02/M07 A3006 RMK A01 T00241070  RH  050%=      5-min Rain = 0
KNH1 111609Z 36023KT 02/M07 A3006 RMK A01 T00241071  RH  050%=      5-min Rain = 0
KNH1 111610Z 35024G30KT 02/M07 A3006 RMK A01 T00231072  RH  050%=      5-min Rain = 0
KNH1 111611Z 35025G31KT 02/M07 A3007 RMK A01 T00231073  RH  049%=      5-min Rain = 0
KNH1 111612Z 35023G28KT 02/M07 A3006 RMK A01 T00231074  RH  049%=      5-min Rain = 0
KNH1 111613Z 35025G32KT 02/M07 A3006 RMK A01 T00221074  RH  049%=      5-min Rain = 0
KNH1 111614Z 36028G35KT 02/M07 A3006 RMK A01 T00221074  RH  049%=      5-min Rain = 0
KNH1 111615Z 36022G27KT 02/M08 A3006 RMK A01 T00221075  RH  049%=      5-min Rain = 0
KNH1 111616Z 35028G33KT 02/M08 A3007 RMK A01 T00221075  RH  049%=      5-min Rain = 0
KNH1 111617Z 36023G30KT 02/M08 A3007 RMK A01 T00221075  RH  049%=      5-min Rain = 0
KNH1 111618Z 36026G32KT 02/M08 A3007 RMK A01 T00221075  RH  049%=      5-min Rain = 0
KNH1 111619Z 35025G30KT 02/M08 A3007 RMK A01 T00221075  RH  049%=      5-min Rain = 0
KNH1 111620Z 36021G31KT 02/M08 A3007 RMK A01 T00221075  RH  049%=      5-min Rain = 0
KNH1 111621Z 35025G31KT 02/M07 A3007 RMK A01 T00231074  RH  049%=      5-min Rain = 0
KNH1 111622Z 36025G32KT 02/M08 A3007 RMK A01 T00231075  RH  048%=      5-min Rain = 0
KNH1 111623Z 36022G29KT 02/M08 A3007 RMK A01 T00231075  RH  048%=      5-min Rain = 0
KNH1 111624Z 35022G27KT 02/M08 A3007 RMK A01 T00231075  RH  048%=      5-min Rain = 0
KNH1 111625Z 35021G26KT 02/M08 A3007 RMK A01 T00231075  RH  048%=      5-min Rain = 0
KNH1 111626Z 35020KT 02/M08 A3007 RMK A01 T00231075  RH  048%=      5-min Rain = 0
KNH1 111627Z 00021G26KT 02/M08 A3007 RMK A01 T00231075  RH  048%=      5-min Rain = 0
KNH1 111628Z 36019KT 02/M08 A3007 RMK A01 T00231076  RH  048%=      5-min Rain = 0
KNH1 111629Z 36016G22KT 02/M08 A3007 RMK A01 T00231076  RH  048%=      5-min Rain = 0
KNH1 111630Z 36016G21KT 02/M08 A3007 RMK A01 T00231075  RH  048%=      5-min Rain = 0
KNH1 111631Z 00018G25KT 02/M07 A3007 RMK A01 T00241074  RH  048%=      5-min Rain = 0
KNH1 111632Z 00018G26KT 02/M08 A3007 RMK A01 T00241075  RH  048%=      5-min Rain = 0
KNH1 111633Z 36016G21KT 02/M08 A3008 RMK A01 T00241076  RH  048%=      5-min Rain = 0
KNH1 111634Z 36022G27KT 02/M08 A3008 RMK A01 T00241076  RH  048%=      5-min Rain = 0
KNH1 111635Z 36022G28KT 03/M08 A3008 RMK A01 T00251077  RH  047%=      5-min Rain = 0
KNH1 111636Z 00020G29KT 03/M08 A3008 RMK A01 T00251077  RH  047%=      5-min Rain = 0
KNH1 111637Z 01024G29KT 03/M08 A3008 RMK A01 T00251078  RH  047%=      5-min Rain = 0
KNH1 111638Z 00020G26KT 02/M08 A3008 RMK A01 T00241079  RH  046%=      5-min Rain = 0
KNH1 111639Z 01021G32KT 03/M08 A3008 RMK A01 T00251079  RH  046%=      5-min Rain = 0
KNH1 111640Z 00022G28KT 03/M08 A3008 RMK A01 T00251080  RH  046%=      5-min Rain = 0
KNH1 111641Z 00021G27KT 03/M08 A3008 RMK A01 T00251079  RH  046%=      5-min Rain = 0
KNH1 111642Z 01021G27KT 03/M08 A3008 RMK A01 T00251079  RH  046%=      5-min Rain = 0
KNH1 111643Z 01021G27KT 03/M08 A3008 RMK A01 T00261079  RH  046%=      5-min Rain = 0
KNH1 111644Z 01018G25KT 03/M08 A3008 RMK A01 T00271078  RH  046%=      5-min Rain = 0
KNH1 111645Z 01019G24KT 03/M08 A3008 RMK A01 T00281077  RH  046%=      5-min Rain = 0
KNH1 111646Z 01018KT 03/M08 A3009 RMK A01 T00271078  RH  046%=      5-min Rain = 0
KNH1 111647Z 01018G24KT 03/M08 A3009 RMK A01 T00271077  RH  046%=      5-min Rain = 0
KNH1 111648Z 01018KT 03/M08 A3008 RMK A01 T00271077  RH  046%=      5-min Rain = 0
KNH1 111649Z 01016G23KT 03/M08 A3009 RMK A01 T00271077  RH  046%=      5-min Rain = 0
KNH1 111650Z 00020G26KT 03/M08 A3009 RMK A01 T00271076  RH  047%=      5-min Rain = 0
KNH1 111651Z 01023G28KT 03/M08 A3009 RMK A01 T00281076  RH  047%=      5-min Rain = 0
KNH1 111652Z 00025G30KT 03/M08 A3009 RMK A01 T00271076  RH  047%=      5-min Rain = 0
KNH1 111653Z 01020G28KT 03/M08 A3009 RMK A01 T00271076  RH  047%=      5-min Rain = 0
KNH1 111654Z 01019KT 03/M08 A3009 RMK A01 T00271075  RH  047%=      5-min Rain = 0
KNH1 111655Z 36019KT 03/M08 A3009 RMK A01 T00281075  RH  047%=      5-min Rain = 0
KNH1 111656Z 36018G24KT 03/M07 A3009 RMK A01 T00291073  RH  047%=      5-min Rain = 0
KNH1 111657Z 00018G26KT 03/M07 A3009 RMK A01 T00301074  RH  046%=      5-min Rain = 0
KNH1 111658Z 01018G25KT 03/M07 A3009 RMK A01 T00301074  RH  046%=      5-min Rain = 0
KNH1 111659Z 00021G27KT 03/M07 A3009 RMK A01 T00301074  RH  046%=      5-min Rain = 0
KNH1 111700Z 01021G28KT 03/M08 A3009 RMK A01 T00301075  RH  046%=      5-min Rain = 0
KNH1 111701Z 01016G22KT 03/M07 A3009 RMK A01 T00301074  RH  046%=      5-min Rain = 0
KNH1 111702Z 00019G24KT 03/M07 A301 RMK A01 T00301074  RH  046%=      5-min Rain = 0
KNH1 111703Z 00019G25KT 03/M07 A301 RMK A01 T00311074  RH  046%=      5-min Rain = 0
KNH1 111704Z 36020G27KT 03/M07 A301 RMK A01 T00321073  RH  046%=      5-min Rain = 0
KNH1 111705Z 00021G26KT 03/M07 A301 RMK A01 T00321073  RH  046%=      5-min Rain = 0
KNH1 111706Z 36018KT 03/M07 A301 RMK A01 T00321073  RH  046%=      5-min Rain = 0
KNH1 111707Z 00021G26KT 03/M07 A301 RMK A01 T00321074  RH  046%=      5-min Rain = 0
KNH1 111708Z 00020G27KT 03/M07 A301 RMK A01 T00331074  RH  046%=      5-min Rain = 0
KNH1 111709Z 00018G24KT 03/M07 A301 RMK A01 T00321074  RH  046%=      5-min Rain = 0
KNH1 111710Z 36022KT 03/M07 A3011 RMK A01 T00321073  RH  046%=      5-min Rain = 0
KNH1 111711Z 36017KT 03/M07 A3011 RMK A01 T00331073  RH  046%=      5-min Rain = 0
KNH1 111712Z 36017KT 03/M07 A3011 RMK A01 T00331072  RH  046%=      5-min Rain = 0
KNH1 111713Z 35015G20KT 03/M07 A3011 RMK A01 T00331071  RH  046%=      5-min Rain = 0
KNH1 111714Z 35016G23KT 03/M07 A3011 RMK A01 T00331071  RH  046%=      5-min Rain = 0
KNH1 111715Z 35017G25KT 03/M07 A3011 RMK A01 T00331071  RH  046%=      5-min Rain = 0
KNH1 111716Z 35020G28KT 03/M07 A3011 RMK A01 T00331072  RH  046%=      5-min Rain = 0
KNH1 111717Z 36019G24KT 03/M07 A3011 RMK A01 T00341072  RH  046%=      5-min Rain = 0
KNH1 111718Z 35021KT 04/M07 A3011 RMK A01 T00351072  RH  045%=      5-min Rain = 0
KNH1 111719Z 36022G28KT 04/M07 A3011 RMK A01 T00351073  RH  045%=      5-min Rain = 0
KNH1 111720Z 36018KT 04/M07 A3011 RMK A01 T00361073  RH  045%=      5-min Rain = 0
KNH1 111721Z 36016G22KT 04/M07 A3011 RMK A01 T00371073  RH  045%=      5-min Rain = 0
KNH1 111722Z 36017G22KT 04/M07 A3011 RMK A01 T00361073  RH  045%=      5-min Rain = 0
KNH1 111723Z 01018G24KT 04/M07 A3011 RMK A01 T00361074  RH  044%=      5-min Rain = 0
KNH1 111724Z 00018G24KT 04/M07 A3011 RMK A01 T00361074  RH  044%=      5-min Rain = 0
KNH1 111725Z 01020KT 04/M08 A3011 RMK A01 T00371075  RH  044%=      5-min Rain = 0
KNH1 111726Z 01024G31KT 04/M08 A3011 RMK A01 T00381078  RH  043%=      5-min Rain = 0
KNH1 111727Z 00024G33KT 04/M08 A3011 RMK A01 T00381081  RH  042%=      5-min Rain = 0
KNH1 111728Z 01020G25KT 04/M08 A3012 RMK A01 T00391081  RH  041%=      5-min Rain = 0
KNH1 111729Z 01017G24KT 04/M08 A3012 RMK A01 T00391081  RH  041%=      5-min Rain = 0
KNH1 111730Z 00017KT 04/M08 A3012 RMK A01 T00401081  RH  041%=      5-min Rain = 0
KNH1 111731Z 01018G25KT 04/M08 A3012 RMK A01 T00431079  RH  041%=      5-min Rain = 0
KNH1 111732Z 01015G21KT 05/M08 A3012 RMK A01 T00451079  RH  040%=      5-min Rain = 0
KNH1 111733Z 01019G24KT 05/M08 A3012 RMK A01 T00471080  RH  039%=      5-min Rain = 0
KNH1 111734Z 00019G26KT 05/M08 A3013 RMK A01 T00471080  RH  039%=      5-min Rain = 0
KNH1 111735Z 36019KT 05/M08 A3013 RMK A01 T00501080  RH  039%=      5-min Rain = 0
KNH1 111736Z 00019KT 05/M08 A3013 RMK A01 T00511078  RH  039%=      5-min Rain = 0
KNH1 111737Z 00021KT 05/M08 A3013 RMK A01 T00521077  RH  039%=      5-min Rain = 0
KNH1 111738Z 35025KT 05/M08 A3014 RMK A01 T00531076  RH  039%=      5-min Rain = 0
KNH1 111739Z 35024G30KT 05/M08 A3014 RMK A01 T00541077  RH  038%=      5-min Rain = 0
KNH1 111740Z 00020KT 06/M08 A3014 RMK A01 T00551076  RH  038%=      5-min Rain = 0
KNH1 111741Z 01017KT 06/M08 A3013 RMK A01 T00571076  RH  038%=      5-min Rain = 0
KNH1 111742Z 00019G24KT 06/M08 A3013 RMK A01 T00561077  RH  038%=      5-min Rain = 0
KNH1 111743Z 00020G26KT 05/M08 A3013 RMK A01 T00541079  RH  038%=      5-min Rain = 0
KNH1 111744Z 01022G28KT 05/M08 A3013 RMK A01 T00511080  RH  038%=      5-min Rain = 0
KNH1 111745Z 01020KT 05/M08 A3013 RMK A01 T00481083  RH  038%=      5-min Rain = 0
KNH1 111746Z 01018G26KT 05/M08 A3013 RMK A01 T00471081  RH  039%=      5-min Rain = 0
KNH1 111747Z 01019G24KT 05/M08 A3013 RMK A01 T00491081  RH  039%=      5-min Rain = 0
KNH1 111748Z 01018KT 05/M08 A3013 RMK A01 T00511081  RH  038%=      5-min Rain = 0
KNH1 111749Z 01016G22KT 05/M08 A3013 RMK A01 T00521081  RH  038%=      5-min Rain = 0
KNH1 111750Z 01018KT 05/M08 A3013 RMK A01 T00531081  RH  037%=      5-min Rain = 0
KNH1 111751Z 00015KT 06/M08 A3013 RMK A01 T00551078  RH  038%=      5-min Rain = 0
KNH1 111752Z 36015KT 06/M07 A3013 RMK A01 T00591074  RH  038%=      5-min Rain = 0
KNH1 111753Z 35019G24KT 06/M07 A3013 RMK A01 T00631073  RH  037%=      5-min Rain = 0
KNH1 111754Z 01017G24KT 07/M07 A3013 RMK A01 T00661074  RH  036%=      5-min Rain = 0
KNH1 111755Z 36023G29KT 07/M08 A3014 RMK A01 T00661078  RH  035%=      5-min Rain = 0
KNH1 111756Z 36022G31KT 06/M09 A3014 RMK A01 T00601085  RH  035%=      5-min Rain = 0
KNH1 111757Z 00019G26KT 06/M09 A3014 RMK A01 T00551087  RH  035%=      5-min Rain = 0
KNH1 111758Z 00022G29KT 05/M09 A3013 RMK A01 T00531087  RH  036%=      5-min Rain = 0
KNH1 111759Z 36025KT 05/M09 A3014 RMK A01 T00531086  RH  036%=      5-min Rain = 0
KNH1 111800Z 35025KT 05/M09 A3014 RMK A01 T00541086  RH  036%=      5-min Rain = 0
KNH1 111801Z 35024G30KT 05/M09 A3014 RMK A01 T00541086  RH  036%=      5-min Rain = 0
KNH1 111802Z 36023KT 05/M09 A3014 RMK A01 T00541087  RH  035%=      5-min Rain = 0
KNH1 111803Z 35022G28KT 05/M09 A3014 RMK A01 T00521089  RH  035%=      5-min Rain = 0
KNH1 111804Z 35024KT 05/M09 A3014 RMK A01 T00531087  RH  036%=      5-min Rain = 0
KNH1 111805Z 36023G29KT 06/M09 A3014 RMK A01 T00561086  RH  035%=      5-min Rain = 0
KNH1 111806Z 36023G28KT 06/M09 A3014 RMK A01 T00591087  RH  034%=      5-min Rain = 0
KNH1 111807Z 35022G27KT 06/M09 A3014 RMK A01 T00591089  RH  034%=      5-min Rain = 0
KNH1 111808Z 01021G31KT 06/M09 A3014 RMK A01 T00591090  RH  033%=      5-min Rain = 0
KNH1 111809Z 01018G26KT 06/M09 A3014 RMK A01 T00561092  RH  033%=      5-min Rain = 0
KNH1 111810Z 00018G23KT 05/M09 A3014 RMK A01 T00541093  RH  034%=      5-min Rain = 0
KNH1 111811Z 35014G19KT 05/M09 A3015 RMK A01 T00531091  RH  034%=      5-min Rain = 0
KNH1 111812Z 36015G22KT 06/M09 A3015 RMK A01 T00561088  RH  035%=      5-min Rain = 0
KNH1 111813Z 36020KT 06/M09 A3015 RMK A01 T00581088  RH  034%=      5-min Rain = 0
KNH1 111814Z 35028KT 06/M09 A3015 RMK A01 T00591090  RH  033%=      5-min Rain = 0
KNH1 111815Z 00025G30KT 06/M09 A3015 RMK A01 T00591092  RH  033%=      5-min Rain = 0
KNH1 111816Z 36021G26KT 06/M09 A3015 RMK A01 T00581094  RH  033%=      5-min Rain = 0
KNH1 111817Z 36023G29KT 06/M09 A3014 RMK A01 T00581094  RH  033%=      5-min Rain = 0
KNH1 111818Z 01019G30KT 06/M10 A3015 RMK A01 T00571095  RH  032%=      5-min Rain = 0
KNH1 111819Z 02020G28KT 06/M10 A3014 RMK A01 T00581095  RH  032%=      5-min Rain = 0
KNH1 111820Z 01019G26KT 06/M10 A3014 RMK A01 T00581096  RH  032%=      5-min Rain = 0
KNH1 111821Z 00015KT 06/M10 A3015 RMK A01 T00581095  RH  032%=      5-min Rain = 0
KNH1 111822Z 00020KT 06/M09 A3015 RMK A01 T00611093  RH  032%=      5-min Rain = 0
KNH1 111823Z 00018G24KT 06/M09 A3015 RMK A01 T00601094  RH  032%=      5-min Rain = 0
KNH1 111824Z 00018G24KT 06/M09 A3015 RMK A01 T00611094  RH  032%=      5-min Rain = 0
KNH1 111825Z 01019G25KT 06/M09 A3014 RMK A01 T00611094  RH  032%=      5-min Rain = 0
KNH1 111826Z 01021G26KT 06/M10 A3014 RMK A01 T00591097  RH  032%=      5-min Rain = 0
KNH1 111827Z 00020KT 06/M10 A3014 RMK A01 T00571097  RH  032%=      5-min Rain = 0
KNH1 111828Z 00021G29KT 06/M10 A3014 RMK A01 T00571096  RH  032%=      5-min Rain = 0
KNH1 111829Z 00021KT 06/M10 A3014 RMK A01 T00591096  RH  032%=      5-min Rain = 0
KNH1 111830Z 01021KT 06/M10 A3014 RMK A01 T00591096  RH  032%=      5-min Rain = 0
KNH1 111831Z 01018KT 06/M10 A3014 RMK A01 T00591096  RH  032%=      5-min Rain = 0
KNH1 111832Z 01019KT 06/M10 A3014 RMK A01 T00601095  RH  032%=      5-min Rain = 0
KNH1 111833Z 01020G27KT 06/M10 A3014 RMK A01 T00611096  RH  032%=      5-min Rain = 0
KNH1 111834Z 00018G25KT 06/M10 A3014 RMK A01 T00601095  RH  032%=      5-min Rain = 0
KNH1 111835Z 00020KT 06/M09 A3014 RMK A01 T00621093  RH  032%=      5-min Rain = 0
KNH1 111836Z 01018G24KT 06/M09 A3014 RMK A01 T00631092  RH  032%=      5-min Rain = 0
KNH1 111837Z 01018G23KT 07/M09 A3014 RMK A01 T00651092  RH  032%=      5-min Rain = 0
KNH1 111838Z 36020G25KT 07/M09 A3014 RMK A01 T00661092  RH  031%=      5-min Rain = 0
KNH1 111839Z 36019G25KT 07/M09 A3014 RMK A01 T00671093  RH  031%=      5-min Rain = 0
KNH1 111840Z 00020G25KT 07/M09 A3014 RMK A01 T00681094  RH  030%=      5-min Rain = 0
KNH1 111841Z 00019G25KT 07/M10 A3014 RMK A01 T00661096  RH  030%=      5-min Rain = 0
KNH1 111842Z 00019KT 07/M10 A3014 RMK A01 T00661095  RH  031%=      5-min Rain = 0
KNH1 111843Z 00017G25KT 07/M09 A3014 RMK A01 T00671094  RH  030%=      5-min Rain = 0
KNH1 111844Z 00016G21KT 07/M09 A3014 RMK A01 T00701092  RH  030%=      5-min Rain = 0
KNH1 111845Z 02017G24KT 07/M09 A3014 RMK A01 T00731093  RH  030%=      5-min Rain = 0
KNH1 111846Z 02018G23KT 07/M09 A3014 RMK A01 T00711094  RH  030%=      5-min Rain = 0
KNH1 111847Z 01017KT 07/M10 A3014 RMK A01 T00691095  RH  030%=      5-min Rain = 0
KNH1 111848Z 36019KT 07/M09 A3014 RMK A01 T00681094  RH  031%=      5-min Rain = 0
KNH1 111849Z 00017G22KT 07/M09 A3014 RMK A01 T00711092  RH  030%=      5-min Rain = 0
KNH1 111850Z 36016G21KT 07/M09 A3014 RMK A01 T00731092  RH  030%=      5-min Rain = 0
KNH1 111851Z 00022KT 07/M09 A3014 RMK A01 T00741092  RH  030%=      5-min Rain = 0
KNH1 111852Z 01019G24KT 07/M10 A3014 RMK A01 T00721095  RH  030%=      5-min Rain = 0
KNH1 111853Z 00017KT 07/M09 A3015 RMK A01 T00711092  RH  030%=      5-min Rain = 0
KNH1 111854Z 01020G25KT 08/M09 A3015 RMK A01 T00751092  RH  029%=      5-min Rain = 0
KNH1 111855Z 00019G26KT 07/M10 A3015 RMK A01 T00721096  RH  029%=      5-min Rain = 0
KNH1 111856Z 36022G28KT 07/M10 A3015 RMK A01 T00711096  RH  029%=      5-min Rain = 0
KNH1 111857Z 35021G26KT 07/M10 A3015 RMK A01 T00721095  RH  029%=      5-min Rain = 0
KNH1 111858Z 35024KT 07/M10 A3015 RMK A01 T00731096  RH  029%=      5-min Rain = 0
KNH1 111859Z 00021KT 07/M10 A3015 RMK A01 T00721097  RH  029%=      5-min Rain = 0
KNH1 111900Z 00018G24KT 07/M10 A3015 RMK A01 T00701098  RH  029%=      5-min Rain = 0
KNH1 111901Z 01018KT 07/M10 A3015 RMK A01 T00701097  RH  029%=      5-min Rain = 0
KNH1 111902Z 00019KT 07/M10 A3015 RMK A01 T00711098  RH  029%=      5-min Rain = 0
KNH1 111903Z 00019KT 07/M10 A3015 RMK A01 T00721097  RH  029%=      5-min Rain = 0
KNH1 111904Z 36019G24KT 07/M10 A3016 RMK A01 T00711096  RH  029%=      5-min Rain = 0
KNH1 111905Z 35020KT 07/M09 A3016 RMK A01 T00731093  RH  030%=      5-min Rain = 0
KNH1 111906Z 00018G23KT 07/M09 A3015 RMK A01 T00741091  RH  030%=      5-min Rain = 0
KNH1 111907Z 35023G30KT 07/M09 A3016 RMK A01 T00741090  RH  030%=      5-min Rain = 0
KNH1 111908Z 36022KT 08/M09 A3016 RMK A01 T00751092  RH  029%=      5-min Rain = 0
KNH1 111909Z 35019G25KT 07/M09 A3016 RMK A01 T00741094  RH  029%=      5-min Rain = 0
KNH1 111910Z 35021G27KT 08/M09 A3016 RMK A01 T00751093  RH  029%=      5-min Rain = 0
KNH1 111911Z 36020G27KT 08/M10 A3016 RMK A01 T00771095  RH  028%=      5-min Rain = 0
KNH1 111912Z 36024KT 08/M10 A3016 RMK A01 T00771096  RH  028%=      5-min Rain = 0
KNH1 111913Z 01021G29KT 08/M10 A3015 RMK A01 T00751098  RH  028%=      5-min Rain = 0
KNH1 111914Z 01020G26KT 07/M10 A3016 RMK A01 T00731101  RH  028%=      5-min Rain = 0
KNH1 111915Z 01020KT 07/M10 A3015 RMK A01 T00721099  RH  029%=      5-min Rain = 0
KNH1 111916Z 00020KT 07/M10 A3015 RMK A01 T00721097  RH  029%=      5-min Rain = 0
KNH1 111917Z 00020KT 07/M10 A3015 RMK A01 T00731095  RH  029%=      5-min Rain = 0
KNH1 111918Z 01020G27KT 07/M10 A3015 RMK A01 T00731096  RH  029%=      5-min Rain = 0
KNH1 111919Z 02018KT 07/M10 A3015 RMK A01 T00721097  RH  029%=      5-min Rain = 0
KNH1 111920Z 01016KT 07/M10 A3015 RMK A01 T00721096  RH  029%=      5-min Rain = 0
KNH1 111921Z 00016G21KT 07/M09 A3015 RMK A01 T00741094  RH  029%=      5-min Rain = 0
KNH1 111922Z 01016G21KT 07/M10 A3015 RMK A01 T00741095  RH  029%=      5-min Rain = 0
KNH1 111923Z 01015KT 08/M10 A3015 RMK A01 T00751095  RH  029%=      5-min Rain = 0
KNH1 111924Z 01018G24KT 08/M09 A3015 RMK A01 T00761094  RH  029%=      5-min Rain = 0
KNH1 111925Z 01016G23KT 08/M09 A3015 RMK A01 T00761094  RH  029%=      5-min Rain = 0
KNH1 111926Z 01014G21KT 08/M09 A3015 RMK A01 T00791091  RH  029%=      5-min Rain = 0
KNH1 111927Z 35016G24KT 08/M09 A3015 RMK A01 T00821090  RH  029%=      5-min Rain = 0
KNH1 111928Z 35020KT 08/M09 A3015 RMK A01 T00841088  RH  028%=      5-min Rain = 0
KNH1 111929Z 34018G26KT 08/M09 A3015 RMK A01 T00821089  RH  029%=      5-min Rain = 0
KNH1 111930Z 36018G26KT 08/M09 A3015 RMK A01 T00821089  RH  029%=      5-min Rain = 0
KNH1 111931Z 35020G26KT 08/M09 A3015 RMK A01 T00831091  RH  028%=      5-min Rain = 0
KNH1 111932Z 35023KT 08/M09 A3015 RMK A01 T00821093  RH  028%=      5-min Rain = 0
KNH1 111933Z 00021G26KT 08/M09 A3015 RMK A01 T00811094  RH  028%=      5-min Rain = 0
KNH1 111934Z 00015G20KT 08/M10 A3015 RMK A01 T00801096  RH  028%=      5-min Rain = 0
KNH1 111935Z 36021G28KT 08/M10 A3015 RMK A01 T00821096  RH  027%=      5-min Rain = 0
KNH1 111936Z 01017KT 08/M10 A3015 RMK A01 T00811099  RH  027%=      5-min Rain = 0
KNH1 111937Z 35022KT 08/M10 A3015 RMK A01 T00781099  RH  027%=      5-min Rain = 0
KNH1 111938Z 01021G28KT 08/M10 A3015 RMK A01 T00781100  RH  027%=      5-min Rain = 0
KNH1 111939Z 00021G27KT 08/M10 A3015 RMK A01 T00771100  RH  027%=      5-min Rain = 0
KNH1 111940Z 01018KT 08/M10 A3015 RMK A01 T00771102  RH  027%=      5-min Rain = 0
KNH1 111941Z 01019G28KT 08/M10 A3015 RMK A01 T00771102  RH  027%=      5-min Rain = 0
KNH1 111942Z 01022KT 08/M10 A3015 RMK A01 T00771104  RH  026%=      5-min Rain = 0
KNH1 111943Z 00018G24KT 08/M11 A3015 RMK A01 T00751105  RH  027%=      5-min Rain = 0
KNH1 111944Z 01016KT 08/M10 A3015 RMK A01 T00761103  RH  027%=      5-min Rain = 0
KNH1 111945Z 01015KT 08/M10 A3015 RMK A01 T00771101  RH  027%=      5-min Rain = 0
KNH1 111946Z 36019G25KT 08/M10 A3015 RMK A01 T00801100  RH  027%=      5-min Rain = 0
KNH1 111947Z 01020KT 08/M10 A3015 RMK A01 T00811101  RH  026%=      5-min Rain = 0
KNH1 111948Z 02017G22KT 08/M10 A3015 RMK A01 T00791102  RH  026%=      5-min Rain = 0
KNH1 111949Z 00017G23KT 08/M10 A3015 RMK A01 T00791101  RH  027%=      5-min Rain = 0
KNH1 111950Z 01018G24KT 08/M10 A3015 RMK A01 T00801100  RH  027%=      5-min Rain = 0
KNH1 111951Z 01014G19KT 08/M10 A3015 RMK A01 T00811100  RH  027%=      5-min Rain = 0
KNH1 111952Z 01018G24KT 08/M10 A3015 RMK A01 T00841100  RH  026%=      5-min Rain = 0
KNH1 111953Z 02017G25KT 08/M10 A3015 RMK A01 T00841103  RH  025%=      5-min Rain = 0
KNH1 111954Z 00018G24KT 09/M10 A3015 RMK A01 T00851103  RH  025%=      5-min Rain = 0
KNH1 111955Z 01021KT 09/M10 A3015 RMK A01 T00851103  RH  025%=      5-min Rain = 0
KNH1 111956Z 01020G26KT 08/M10 A3015 RMK A01 T00821103  RH  026%=      5-min Rain = 0
KNH1 111957Z 01018G23KT 08/M10 A3015 RMK A01 T00801102  RH  026%=      5-min Rain = 0
KNH1 111958Z 01016G22KT 08/M10 A3015 RMK A01 T00791101  RH  027%=      5-min Rain = 0
KNH1 111959Z 00021G26KT 08/M10 A3015 RMK A01 T00801102  RH  026%=      5-min Rain = 0
KNH1 112000Z 01018KT 08/M10 A3015 RMK A01 T00801102  RH  026%=      5-min Rain = 0
KNH1 112001Z 02015G23KT 08/M10 A3015 RMK A01 T00781103  RH  026%=      5-min Rain = 0
KNH1 112002Z 00016KT 08/M10 A3015 RMK A01 T00791101  RH  027%=      5-min Rain = 0
KNH1 112003Z 01020KT 08/M10 A3015 RMK A01 T00811100  RH  027%=      5-min Rain = 0
KNH1 112004Z 00017G22KT 08/M10 A3015 RMK A01 T00821099  RH  027%=      5-min Rain = 0
KNH1 112005Z 36015KT 08/M10 A3015 RMK A01 T00831098  RH  027%=      5-min Rain = 0
KNH1 112006Z 36015KT 08/M10 A3015 RMK A01 T00841098  RH  026%=      5-min Rain = 0
KNH1 112007Z 00015KT 09/M10 A3015 RMK A01 T00851097  RH  026%=      5-min Rain = 0
KNH1 112008Z 00015G20KT 09/M10 A3015 RMK A01 T00881095  RH  026%=      5-min Rain = 0
KNH1 112009Z 01018G23KT 09/M10 A3015 RMK A01 T00881098  RH  026%=      5-min Rain = 0
KNH1 112010Z 00015G21KT 08/M10 A3015 RMK A01 T00841100  RH  026%=      5-min Rain = 0
KNH1 112011Z 35016G23KT 09/M10 A3015 RMK A01 T00851097  RH  026%=      5-min Rain = 0
KNH1 112012Z 01016KT 09/M10 A3015 RMK A01 T00861097  RH  026%=      5-min Rain = 0
KNH1 112013Z 01017KT 09/M10 A3015 RMK A01 T00851098  RH  026%=      5-min Rain = 0
KNH1 112014Z 01015G20KT 08/M10 A3015 RMK A01 T00841098  RH  026%=      5-min Rain = 0
KNH1 112015Z 01016G22KT 08/M10 A3015 RMK A01 T00841098  RH  027%=      5-min Rain = 0
KNH1 112016Z 01019G24KT 09/M10 A3015 RMK A01 T00851098  RH  026%=      5-min Rain = 0
KNH1 112017Z 02014KT 08/M10 A3015 RMK A01 T00841099  RH  026%=      5-min Rain = 0
KNH1 112018Z 00014G19KT 09/M10 A3016 RMK A01 T00861096  RH  026%=      5-min Rain = 0
KNH1 112019Z 00019G24KT 09/M10 A3016 RMK A01 T00891095  RH  026%=      5-min Rain = 0
KNH1 112020Z 36016KT 09/M10 A3016 RMK A01 T00881100  RH  025%=      5-min Rain = 0
KNH1 112021Z 01019KT 09/M10 A3016 RMK A01 T00871100  RH  026%=      5-min Rain = 0
KNH1 112022Z 01020KT 09/M10 A3016 RMK A01 T00871101  RH  025%=      5-min Rain = 0
KNH1 112023Z 01020G25KT 09/M10 A3016 RMK A01 T00851101  RH  026%=      5-min Rain = 0
KNH1 112024Z 01019G25KT 08/M10 A3016 RMK A01 T00841101  RH  026%=      5-min Rain = 0
KNH1 112025Z 01020KT 08/M10 A3015 RMK A01 T00841101  RH  026%=      5-min Rain = 0
KNH1 112026Z 01015G21KT 08/M10 A3015 RMK A01 T00831100  RH  026%=      5-min Rain = 0
KNH1 112027Z 02016KT 08/M10 A3015 RMK A01 T00831100  RH  026%=      5-min Rain = 0
KNH1 112028Z 01016G21KT 08/M10 A3015 RMK A01 T00841099  RH  026%=      5-min Rain = 0
KNH1 112029Z 00016KT 09/M10 A3015 RMK A01 T00861099  RH  026%=      5-min Rain = 0
KNH1 112030Z 01017KT 09/M10 A3015 RMK A01 T00871098  RH  026%=      5-min Rain = 0
KNH1 112031Z 00016KT 09/M10 A3016 RMK A01 T00871098  RH  026%=      5-min Rain = 0
KNH1 112032Z 01016KT 09/M10 A3016 RMK A01 T00871098  RH  026%=      5-min Rain = 0
KNH1 112033Z 01015G20KT 09/M10 A3015 RMK A01 T00871098  RH  026%=      5-min Rain = 0
KNH1 112034Z 00013KT 09/M10 A3015 RMK A01 T00881099  RH  026%=      5-min Rain = 0
KNH1 112035Z 00016G23KT 09/M10 A3015 RMK A01 T00881098  RH  026%=      5-min Rain = 0
KNH1 112036Z 01017G22KT 09/M10 A3015 RMK A01 T00881098  RH  026%=      5-min Rain = 0
KNH1 112037Z 00017KT 09/M10 A3015 RMK A01 T00881099  RH  026%=      5-min Rain = 0
KNH1 112038Z 01017KT 09/M10 A3015 RMK A01 T00861100  RH  026%=      5-min Rain = 0
KNH1 112039Z 01013G22KT 09/M10 A3015 RMK A01 T00861099  RH  026%=      5-min Rain = 0
KNH1 112040Z 01018KT 09/M10 A3015 RMK A01 T00871099  RH  026%=      5-min Rain = 0
KNH1 112041Z 01014G19KT 09/M10 A3016 RMK A01 T00861100  RH  026%=      5-min Rain = 0
KNH1 112042Z 02014G20KT 09/M10 A3016 RMK A01 T00851100  RH  026%=      5-min Rain = 0
KNH1 112043Z 02015G20KT 09/M10 A3015 RMK A01 T00861099  RH  026%=      5-min Rain = 0
KNH1 112044Z 02016KT 09/M10 A3015 RMK A01 T00861099  RH  026%=      5-min Rain = 0
KNH1 112045Z 01016KT 09/M10 A3016 RMK A01 T00881099  RH  026%=      5-min Rain = 0
KNH1 112046Z 01014G22KT 09/M10 A3016 RMK A01 T00891099  RH  026%=      5-min Rain = 0
KNH1 112047Z 00017KT 09/M10 A3016 RMK A01 T00891100  RH  025%=      5-min Rain = 0
KNH1 112048Z 00017KT 09/M10 A3016 RMK A01 T00881101  RH  025%=      5-min Rain = 0
KNH1 112049Z 00018G23KT 09/M10 A3016 RMK A01 T00881101  RH  025%=      5-min Rain = 0
KNH1 112050Z 00019KT 09/M10 A3016 RMK A01 T00891102  RH  025%=      5-min Rain = 0
KNH1 112051Z 02016G22KT 09/M10 A3016 RMK A01 T00881103  RH  025%=      5-min Rain = 0
KNH1 112052Z 00016G21KT 09/M10 A3017 RMK A01 T00891101  RH  025%=      5-min Rain = 0
KNH1 112053Z 00016G21KT 09/M10 A3017 RMK A01 T00901100  RH  025%=      5-min Rain = 0
KNH1 112054Z 01017KT 09/M10 A3017 RMK A01 T00901100  RH  025%=      5-min Rain = 0
KNH1 112055Z 01017KT 09/M10 A3017 RMK A01 T00891101  RH  025%=      5-min Rain = 0
KNH1 112056Z 01014KT 09/M10 A3017 RMK A01 T00881100  RH  025%=      5-min Rain = 0
KNH1 112057Z 01015KT 09/M10 A3017 RMK A01 T00901100  RH  025%=      5-min Rain = 0
KNH1 112058Z 01016G21KT 09/M10 A3017 RMK A01 T00901101  RH  025%=      5-min Rain = 0
KNH1 112059Z 01019KT 09/M10 A3017 RMK A01 T00891101  RH  025%=      5-min Rain = 0
KNH1 112100Z 01017KT 09/M10 A3017 RMK A01 T00871101  RH  025%=      5-min Rain = 0
KNH1 112101Z 02015G21KT 09/M10 A3017 RMK A01 T00861100  RH  026%=      5-min Rain = 0
KNH1 112102Z 01016G21KT 09/M10 A3017 RMK A01 T00881099  RH  026%=      5-min Rain = 0
KNH1 112103Z 01015KT 09/M10 A3017 RMK A01 T00891098  RH  026%=      5-min Rain = 0
KNH1 112104Z 01014KT 09/M10 A3017 RMK A01 T00901097  RH  026%=      5-min Rain = 0
KNH1 112105Z 00014KT 09/M10 A3017 RMK A01 T00891096  RH  026%=      5-min Rain = 0
KNH1 112106Z 00013G18KT 09/M10 A3017 RMK A01 T00911096  RH  026%=      5-min Rain = 0
KNH1 112107Z 01015G20KT 09/M10 A3017 RMK A01 T00931096  RH  025%=      5-min Rain = 0
KNH1 112108Z 00016G22KT 09/M10 A3018 RMK A01 T00911096  RH  026%=      5-min Rain = 0
KNH1 112109Z 01018KT 09/M10 A3018 RMK A01 T00911095  RH  026%=      5-min Rain = 0
KNH1 112110Z 01016KT 09/M10 A3018 RMK A01 T00911096  RH  026%=      5-min Rain = 0
KNH1 112111Z 36013G20KT 09/M10 A3018 RMK A01 T00881097  RH  026%=      5-min Rain = 0
KNH1 112112Z 01018G24KT 09/M10 A3018 RMK A01 T00891095  RH  026%=      5-min Rain = 0
KNH1 112113Z 01017KT 09/M10 A3018 RMK A01 T00891096  RH  026%=      5-min Rain = 0
KNH1 112114Z 02013KT 09/M10 A3018 RMK A01 T00871096  RH  026%=      5-min Rain = 0
KNH1 112115Z 01014KT 09/M09 A3018 RMK A01 T00891094  RH  026%=      5-min Rain = 0
KNH1 112116Z 01013G19KT 09/M09 A3018 RMK A01 T00901094  RH  026%=      5-min Rain = 0
KNH1 112117Z 02013KT 09/M09 A3018 RMK A01 T00911094  RH  026%=      5-min Rain = 0
KNH1 112118Z 02014G19KT 09/M10 A3018 RMK A01 T00901096  RH  026%=      5-min Rain = 0
KNH1 112119Z 01016KT 09/M10 A3018 RMK A01 T00891095  RH  026%=      5-min Rain = 0
KNH1 112120Z 36014KT 09/M10 A3018 RMK A01 T00901096  RH  026%=      5-min Rain = 0
KNH1 112121Z 35017KT 09/M10 A3018 RMK A01 T00911097  RH  026%=      5-min Rain = 0
KNH1 112122Z 36015KT 09/M10 A3018 RMK A01 T00921098  RH  025%=      5-min Rain = 0
KNH1 112123Z 01013KT 09/M10 A3018 RMK A01 T00921096  RH  025%=      5-min Rain = 0
KNH1 112124Z 01012KT 09/M10 A3018 RMK A01 T00921095  RH  026%=      5-min Rain = 0
KNH1 112125Z 02011G16KT 09/M09 A3018 RMK A01 T00921094  RH  026%=      5-min Rain = 0
KNH1 112126Z 01012KT 09/M09 A3018 RMK A01 T00931094  RH  026%=      5-min Rain = 0
KNH1 112127Z 00012KT 09/M10 A3018 RMK A01 T00911095  RH  026%=      5-min Rain = 0
KNH1 112128Z 36013KT 09/M09 A3019 RMK A01 T00921094  RH  026%=      5-min Rain = 0
KNH1 112129Z 01016G23KT 09/M09 A3019 RMK A01 T00941094  RH  026%=      5-min Rain = 0
KNH1 112130Z 00015KT 09/M10 A3018 RMK A01 T00941096  RH  025%=      5-min Rain = 0
KNH1 112131Z 01017G23KT 09/M10 A3019 RMK A01 T00941097  RH  025%=      5-min Rain = 0
KNH1 112132Z 36018KT 09/M10 A3019 RMK A01 T00931097  RH  025%=      5-min Rain = 0
KNH1 112133Z 36016G21KT 09/M10 A3019 RMK A01 T00931097  RH  025%=      5-min Rain = 0
KNH1 112134Z 35023KT 09/M10 A3019 RMK A01 T00941098  RH  025%=      5-min Rain = 0
KNH1 112135Z 36019G26KT 09/M10 A3019 RMK A01 T00931098  RH  025%=      5-min Rain = 0
KNH1 112136Z 36019G25KT 09/M10 A3019 RMK A01 T00931098  RH  025%=      5-min Rain = 0
KNH1 112137Z 00017G22KT 09/M10 A3019 RMK A01 T00921098  RH  025%=      5-min Rain = 0
KNH1 112138Z 36016KT 09/M10 A3019 RMK A01 T00921099  RH  025%=      5-min Rain = 0
KNH1 112139Z 35014G19KT 09/M10 A3019 RMK A01 T00921098  RH  025%=      5-min Rain = 0
KNH1 112140Z 00014G19KT 09/M10 A3019 RMK A01 T00931098  RH  025%=      5-min Rain = 0
KNH1 112141Z 00014KT 09/M10 A3019 RMK A01 T00921097  RH  025%=      5-min Rain = 0
KNH1 112142Z 01015G21KT 09/M10 A3019 RMK A01 T00911099  RH  025%=      5-min Rain = 0
KNH1 112143Z 36017KT 09/M10 A3019 RMK A01 T00901099  RH  025%=      5-min Rain = 0
KNH1 112144Z 35014KT 09/M10 A3019 RMK A01 T00921097  RH  025%=      5-min Rain = 0
KNH1 112145Z 00013KT 10/M10 A3019 RMK A01 T00951096  RH  025%=      5-min Rain = 0
KNH1 112146Z 00011KT 10/M10 A3019 RMK A01 T00961096  RH  025%=      5-min Rain = 0
KNH1 112147Z 36011KT 10/M10 A3019 RMK A01 T00971096  RH  025%=      5-min Rain = 0
KNH1 112148Z 00015KT 10/M10 A3019 RMK A01 T00971096  RH  025%=      5-min Rain = 0
KNH1 112149Z 01012KT 10/M10 A3019 RMK A01 T00971096  RH  025%=      5-min Rain = 0
KNH1 112150Z 01016KT 10/M10 A3019 RMK A01 T00971098  RH  024%=      5-min Rain = 0
KNH1 112151Z 01011G16KT 09/M10 A3019 RMK A01 T00931100  RH  024%=      5-min Rain = 0
KNH1 112152Z 02015G20KT 09/M10 A3019 RMK A01 T00931099  RH  025%=      5-min Rain = 0
KNH1 112153Z 01013KT 09/M10 A3019 RMK A01 T00941100  RH  024%=      5-min Rain = 0
KNH1 112154Z 01015KT 09/M10 A3019 RMK A01 T00941101  RH  024%=      5-min Rain = 0
KNH1 112155Z 00012KT 09/M10 A302 RMK A01 T00941101  RH  024%=      5-min Rain = 0
KNH1 112156Z 01018KT 09/M10 A302 RMK A01 T00941101  RH  024%=      5-min Rain = 0
KNH1 112157Z 01014G19KT 09/M10 A302 RMK A01 T00921102  RH  024%=      5-min Rain = 0
KNH1 112158Z 01013G19KT 09/M10 A302 RMK A01 T00911101  RH  024%=      5-min Rain = 0
KNH1 112159Z 00015KT 09/M10 A302 RMK A01 T00921100  RH  025%=      5-min Rain = 0
KNH1 112200Z 01015G20KT 09/M10 A302 RMK A01 T00921100  RH  025%=      5-min Rain = 0
KNH1 112201Z 00013G20KT 09/M10 A302 RMK A01 T00921100  RH  025%=      5-min Rain = 0
KNH1 112202Z 01018KT 09/M10 A302 RMK A01 T00921101  RH  024%=      5-min Rain = 0
KNH1 112203Z 01014G20KT 09/M10 A302 RMK A01 T00911102  RH  024%=      5-min Rain = 0
KNH1 112204Z 01016KT 09/M10 A302 RMK A01 T00911102  RH  024%=      5-min Rain = 0
KNH1 112205Z 02015KT 09/M10 A302 RMK A01 T00911103  RH  024%=      5-min Rain = 0
KNH1 112206Z 01015G21KT 09/M10 A302 RMK A01 T00911102  RH  024%=      5-min Rain = 0
KNH1 112207Z 01014KT 09/M10 A302 RMK A01 T00911102  RH  024%=      5-min Rain = 0
KNH1 112208Z 01012KT 09/M10 A302 RMK A01 T00911101  RH  025%=      5-min Rain = 0
KNH1 112209Z 01013G18KT 09/M10 A302 RMK A01 T00911100  RH  025%=      5-min Rain = 0
KNH1 112210Z 02013G18KT 09/M10 A302 RMK A01 T00921100  RH  025%=      5-min Rain = 0
KNH1 112211Z 02012KT 09/M10 A302 RMK A01 T00911100  RH  025%=      5-min Rain = 0
KNH1 112212Z 01014KT 09/M10 A302 RMK A01 T00911100  RH  025%=      5-min Rain = 0
KNH1 112213Z 01014KT 09/M10 A302 RMK A01 T00911099  RH  025%=      5-min Rain = 0
KNH1 112214Z 36012G17KT 09/M10 A302 RMK A01 T00911100  RH  025%=      5-min Rain = 0
KNH1 112215Z 36014G20KT 09/M10 A302 RMK A01 T00911099  RH  025%=      5-min Rain = 0
KNH1 112216Z 36014KT 09/M10 A302 RMK A01 T00921098  RH  025%=      5-min Rain = 0
KNH1 112217Z 00015KT 09/M10 A302 RMK A01 T00931098  RH  025%=      5-min Rain = 0
KNH1 112218Z 00015KT 09/M10 A302 RMK A01 T00921099  RH  025%=      5-min Rain = 0
KNH1 112219Z 00012KT 09/M10 A302 RMK A01 T00911099  RH  025%=      5-min Rain = 0
KNH1 112220Z 00013KT 09/M10 A302 RMK A01 T00911099  RH  025%=      5-min Rain = 0
KNH1 112221Z 00011KT 09/M10 A302 RMK A01 T00911099  RH  025%=      5-min Rain = 0
KNH1 112222Z 00014KT 09/M10 A302 RMK A01 T00911099  RH  025%=      5-min Rain = 0
KNH1 112223Z 00014KT 09/M10 A302 RMK A01 T00901101  RH  025%=      5-min Rain = 0
KNH1 112224Z 01013KT 09/M10 A302 RMK A01 T00901101  RH  025%=      5-min Rain = 0
KNH1 112225Z 00014KT 09/M10 A302 RMK A01 T00901102  RH  025%=      5-min Rain = 0
KNH1 112226Z 02013KT 09/M10 A302 RMK A01 T00891102  RH  025%=      5-min Rain = 0
KNH1 112227Z 01013G19KT 09/M10 A302 RMK A01 T00891102  RH  025%=      5-min Rain = 0
KNH1 112228Z 01013KT 09/M10 A302 RMK A01 T00891103  RH  025%=      5-min Rain = 0
KNH1 112229Z 01015KT 09/M10 A302 RMK A01 T00891103  RH  025%=      5-min Rain = 0
KNH1 112230Z 01016KT 09/M10 A302 RMK A01 T00891103  RH  025%=      5-min Rain = 0
KNH1 112231Z 00015KT 09/M10 A302 RMK A01 T00881103  RH  025%=      5-min Rain = 0
KNH1 112232Z 00014KT 09/M10 A302 RMK A01 T00881103  RH  025%=      5-min Rain = 0
KNH1 112233Z 36012G17KT 09/M10 A302 RMK A01 T00881103  RH  025%=      5-min Rain = 0
KNH1 112234Z 00013KT 09/M10 A302 RMK A01 T00881102  RH  025%=      5-min Rain = 0
KNH1 112235Z 35014KT 09/M10 A302 RMK A01 T00901101  RH  025%=      5-min Rain = 0
KNH1 112236Z 00012KT 09/M10 A302 RMK A01 T00901101  RH  025%=      5-min Rain = 0
KNH1 112237Z 36009KT 09/M10 A302 RMK A01 T00911100  RH  025%=      5-min Rain = 0
KNH1 112238Z 00010KT 09/M10 A302 RMK A01 T00911101  RH  025%=      5-min Rain = 0
KNH1 112239Z 01011KT 09/M10 A3021 RMK A01 T00911101  RH  025%=      5-min Rain = 0
KNH1 112240Z 00009KT 09/M10 A3021 RMK A01 T00911101  RH  025%=      5-min Rain = 0
KNH1 112241Z 01011KT 09/M10 A3021 RMK A01 T00911101  RH  025%=      5-min Rain = 0
KNH1 112242Z 00012KT 09/M10 A3021 RMK A01 T00901101  RH  025%=      5-min Rain = 0
KNH1 112243Z 00012KT 09/M10 A3021 RMK A01 T00901101  RH  025%=      5-min Rain = 0
KNH1 112244Z 00011KT 09/M10 A3021 RMK A01 T00901102  RH  025%=      5-min Rain = 0
KNH1 112245Z 35012G17KT 09/M10 A3021 RMK A01 T00901102  RH  025%=      5-min Rain = 0
KNH1 112246Z 36013KT 09/M10 A3021 RMK A01 T00901102  RH  025%=      5-min Rain = 0
KNH1 112247Z 36012KT 09/M10 A3021 RMK A01 T00901102  RH  025%=      5-min Rain = 0
KNH1 112248Z 00012G17KT 09/M10 A3021 RMK A01 T00901101  RH  025%=      5-min Rain = 0
KNH1 112249Z 01013KT 09/M10 A3021 RMK A01 T00901101  RH  025%=      5-min Rain = 0
KNH1 112250Z 01014G19KT 09/M10 A3021 RMK A01 T00891102  RH  025%=      5-min Rain = 0
KNH1 112251Z 01011KT 09/M10 A3021 RMK A01 T00891102  RH  025%=      5-min Rain = 0
KNH1 112252Z 01012KT 09/M10 A3021 RMK A01 T00881102  RH  025%=      5-min Rain = 0
KNH1 112253Z 01011KT 09/M10 A3021 RMK A01 T00881102  RH  025%=      5-min Rain = 0
KNH1 112254Z 01013KT 09/M10 A3021 RMK A01 T00881102  RH  025%=      5-min Rain = 0
KNH1 112255Z 01013G18KT 09/M10 A3021 RMK A01 T00881102  RH  025%=      5-min Rain = 0
KNH1 112256Z 01013KT 09/M10 A3021 RMK A01 T00871102  RH  025%=      5-min Rain = 0
KNH1 112257Z 01013KT 09/M10 A3021 RMK A01 T00871102  RH  025%=      5-min Rain = 0
KNH1 112258Z 01012KT 09/M10 A3021 RMK A01 T00871101  RH  025%=      5-min Rain = 0
KNH1 112259Z 01013G18KT 09/M10 A3021 RMK A01 T00871100  RH  025%=      5-min Rain = 0
KNH1 112300Z 02011KT 09/M10 A3022 RMK A01 T00871101  RH  025%=      5-min Rain = 0
KNH1 112301Z 01013KT 09/M10 A3022 RMK A01 T00861101  RH  025%=      5-min Rain = 0
KNH1 112302Z 01011G16KT 09/M10 A3022 RMK A01 T00861101  RH  025%=      5-min Rain = 0
KNH1 112303Z 01011KT 09/M10 A3022 RMK A01 T00861102  RH  025%=      5-min Rain = 0
KNH1 112304Z 00012KT 09/M10 A3022 RMK A01 T00861101  RH  025%=      5-min Rain = 0
KNH1 112305Z 01013KT 09/M10 A3022 RMK A01 T00861102  RH  025%=      5-min Rain = 0
KNH1 112306Z 00011KT 09/M10 A3022 RMK A01 T00871101  RH  025%=      5-min Rain = 0
KNH1 112307Z 00013KT 09/M10 A3022 RMK A01 T00861101  RH  025%=      5-min Rain = 0
KNH1 112308Z 36014KT 09/M10 A3022 RMK A01 T00861101  RH  025%=      5-min Rain = 0
KNH1 112309Z 00011KT 09/M10 A3022 RMK A01 T00861101  RH  025%=      5-min Rain = 0
KNH1 112310Z 00010KT 09/M10 A3022 RMK A01 T00851101  RH  026%=      5-min Rain = 0
KNH1 112311Z 00011KT 09/M10 A3022 RMK A01 T00861100  RH  026%=      5-min Rain = 0
KNH1 112312Z 00012KT 09/M10 A3022 RMK A01 T00861100  RH  026%=      5-min Rain = 0
KNH1 112313Z 00010KT 09/M10 A3022 RMK A01 T00851100  RH  026%=      5-min Rain = 0
KNH1 112314Z 00008KT 09/M10 A3023 RMK A01 T00851100  RH  026%=      5-min Rain = 0
KNH1 112315Z 01010KT 09/M10 A3023 RMK A01 T00851100  RH  026%=      5-min Rain = 0
KNH1 112316Z 35011KT 09/M10 A3023 RMK A01 T00851100  RH  026%=      5-min Rain = 0
KNH1 112317Z 35013KT 09/M10 A3023 RMK A01 T00851101  RH  026%=      5-min Rain = 0
KNH1 112318Z 35010KT 09/M10 A3023 RMK A01 T00851101  RH  026%=      5-min Rain = 0
KNH1 112319Z 35010KT 09/M10 A3023 RMK A01 T00851101  RH  026%=      5-min Rain = 0
KNH1 112320Z 35011KT 09/M10 A3023 RMK A01 T00851101  RH  026%=      5-min Rain = 0
KNH1 112321Z 00009KT 08/M10 A3023 RMK A01 T00841102  RH  026%=      5-min Rain = 0
KNH1 112322Z 00013KT 08/M10 A3023 RMK A01 T00841102  RH  026%=      5-min Rain = 0
KNH1 112323Z 35011KT 08/M10 A3023 RMK A01 T00831102  RH  026%=      5-min Rain = 0
KNH1 112324Z 00011KT 08/M10 A3023 RMK A01 T00831103  RH  026%=      5-min Rain = 0
KNH1 112325Z 00011KT 08/M10 A3023 RMK A01 T00821103  RH  026%=      5-min Rain = 0
KNH1 112326Z 36011KT 08/M10 A3023 RMK A01 T00821103  RH  026%=      5-min Rain = 0
KNH1 112327Z 00011KT 08/M10 A3024 RMK A01 T00811103  RH  026%=      5-min Rain = 0
KNH1 112328Z 36015KT 08/M10 A3024 RMK A01 T00811104  RH  026%=      5-min Rain = 0
KNH1 112329Z 36014KT 08/M11 A3024 RMK A01 T00801105  RH  026%=      5-min Rain = 0
KNH1 112330Z 36014KT 08/M11 A3024 RMK A01 T00801105  RH  026%=      5-min Rain = 0
KNH1 112331Z 00012KT 08/M11 A3024 RMK A01 T00791105  RH  026%=      5-min Rain = 0
KNH1 112332Z 35012KT 08/M10 A3024 RMK A01 T00791104  RH  026%=      5-min Rain = 0
KNH1 112333Z 35012KT 08/M10 A3024 RMK A01 T00791104  RH  026%=      5-min Rain = 0
KNH1 112334Z 35012KT 08/M10 A3024 RMK A01 T00781103  RH  026%=      5-min Rain = 0
KNH1 112335Z 36012G17KT 08/M10 A3024 RMK A01 T00781103  RH  026%=      5-min Rain = 0
KNH1 112336Z 36011KT 08/M10 A3024 RMK A01 T00781103  RH  027%=      5-min Rain = 0
KNH1 112337Z 01013KT 08/M10 A3024 RMK A01 T00771103  RH  027%=      5-min Rain = 0
KNH1 112338Z 00012KT 08/M10 A3024 RMK A01 T00771103  RH  027%=      5-min Rain = 0
KNH1 112339Z 00009KT 08/M10 A3024 RMK A01 T00771102  RH  027%=      5-min Rain = 0
KNH1 112340Z 00009G14KT 08/M10 A3024 RMK A01 T00761103  RH  027%=      5-min Rain = 0
KNH1 112341Z 00009KT 08/M10 A3024 RMK A01 T00761103  RH  027%=      5-min Rain = 0
KNH1 112342Z 00010KT 08/M10 A3024 RMK A01 T00761103  RH  027%=      5-min Rain = 0
KNH1 112343Z 36011KT 08/M10 A3024 RMK A01 T00761103  RH  027%=      5-min Rain = 0
KNH1 112344Z 36008KT 08/M10 A3024 RMK A01 T00751102  RH  027%=      5-min Rain = 0
KNH1 112345Z 36009KT 08/M10 A3024 RMK A01 T00751102  RH  027%=      5-min Rain = 0
KNH1 112346Z 36009KT 07/M10 A3025 RMK A01 T00741103  RH  027%=      5-min Rain = 0
KNH1 112347Z 36008KT 07/M10 A3025 RMK A01 T00731103  RH  027%=      5-min Rain = 0
KNH1 112348Z 36009KT 07/M10 A3025 RMK A01 T00721103  RH  028%=      5-min Rain = 0
KNH1 112349Z 35008KT 07/M10 A3025 RMK A01 T00721103  RH  028%=      5-min Rain = 0
KNH1 112350Z 35009KT 07/M10 A3025 RMK A01 T00711103  RH  028%=      5-min Rain = 0
KNH1 112351Z 35009KT 07/M10 A3025 RMK A01 T00711103  RH  028%=      5-min Rain = 0
KNH1 112352Z 35010KT 07/M10 A3025 RMK A01 T00701104  RH  028%=      5-min Rain = 0
KNH1 112353Z 35010KT 07/M10 A3025 RMK A01 T00691104  RH  028%=      5-min Rain = 0
KNH1 112354Z 35008KT 07/M10 A3025 RMK A01 T00691103  RH  028%=      5-min Rain = 0
KNH1 112355Z 35009KT 07/M10 A3025 RMK A01 T00681104  RH  028%=      5-min Rain = 0
KNH1 112356Z 35009KT 07/M10 A3025 RMK A01 T00681104  RH  028%=      5-min Rain = 0
KNH1 112357Z 35009KT 07/M10 A3025 RMK A01 T00671104  RH  028%=      5-min Rain = 0
KNH1 112358Z 35007KT 07/M10 A3025 RMK A01 T00671103  RH  028%=      5-min Rain = 0
KNH1 112359Z 35007KT 07/M10 A3025 RMK A01 T00661103  RH  029%=      5-min Rain = 0
KNH1 120000Z 35007KT 06/M10 A3025 RMK A01 T00641104  RH  029%=      5-min Rain = 0
KNH1 120001Z 35008KT 06/M10 A3025 RMK A01 T00621104  RH  029%=      5-min Rain = 0
KNH1 120002Z 36006KT 06/M10 A3025 RMK A01 T00621103  RH  029%=      5-min Rain = 0
KNH1 120003Z 00008KT 06/M10 A3025 RMK A01 T00621103  RH  029%=      5-min Rain = 0
KNH1 120004Z 36010KT 06/M10 A3025 RMK A01 T00621103  RH  030%=      5-min Rain = 0
KNH1 120005Z 36008KT 06/M10 A3025 RMK A01 T00621103  RH  030%=      5-min Rain = 0
KNH1 120006Z 36008KT 06/M10 A3025 RMK A01 T00621103  RH  029%=      5-min Rain = 0
KNH1 120007Z 00008KT 06/M10 A3025 RMK A01 T00621103  RH  029%=      5-min Rain = 0
KNH1 120008Z 01008KT 06/M10 A3025 RMK A01 T00631103  RH  029%=      5-min Rain = 0
KNH1 120009Z 01008KT 06/M10 A3025 RMK A01 T00631103  RH  029%=      5-min Rain = 0
KNH1 120010Z 01006KT 06/M10 A3025 RMK A01 T00641103  RH  029%=      5-min Rain = 0
KNH1 120011Z 01006KT 06/M10 A3025 RMK A01 T00641103  RH  029%=      5-min Rain = 0
KNH1 120012Z 01008KT 06/M10 A3025 RMK A01 T00641103  RH  029%=      5-min Rain = 0
KNH1 120013Z 01007KT 06/M10 A3025 RMK A01 T00631103  RH  029%=      5-min Rain = 0
KNH1 120014Z 01007KT 06/M10 A3025 RMK A01 T00631103  RH  029%=      5-min Rain = 0
KNH1 120015Z 01006KT 06/M10 A3025 RMK A01 T00631103  RH  029%=      5-min Rain = 0
KNH1 120016Z 01005KT 06/M10 A3025 RMK A01 T00631103  RH  029%=      5-min Rain = 0
KNH1 120017Z 01006KT 06/M10 A3025 RMK A01 T00621103  RH  030%=      5-min Rain = 0
KNH1 120018Z 01006KT 06/M10 A3026 RMK A01 T00611103  RH  030%=      5-min Rain = 0
KNH1 120019Z 01006KT 06/M10 A3026 RMK A01 T00611103  RH  030%=      5-min Rain = 0
KNH1 120020Z 01005KT 06/M10 A3026 RMK A01 T00611103  RH  030%=      5-min Rain = 0
KNH1 120021Z 01005KT 06/M10 A3026 RMK A01 T00611103  RH  030%=      5-min Rain = 0
KNH1 120022Z 01006KT 06/M10 A3026 RMK A01 T00601103  RH  030%=      5-min Rain = 0
KNH1 120023Z 00006KT 06/M10 A3026 RMK A01 T00601102  RH  030%=      5-min Rain = 0
KNH1 120024Z 01004KT 06/M10 A3026 RMK A01 T00601103  RH  030%=      5-min Rain = 0
KNH1 120025Z 01005KT 06/M10 A3026 RMK A01 T00591103  RH  030%=      5-min Rain = 0
KNH1 120026Z 01006KT 06/M10 A3025 RMK A01 T00581103  RH  030%=      5-min Rain = 0
KNH1 120027Z 01004KT 06/M10 A3026 RMK A01 T00571103  RH  031%=      5-min Rain = 0
KNH1 120028Z 01004KT 06/M10 A3026 RMK A01 T00551104  RH  031%=      5-min Rain = 0
KNH1 120029Z 01004KT 05/M10 A3026 RMK A01 T00541104  RH  031%=      5-min Rain = 0
KNH1 120030Z 01004KT 05/M10 A3026 RMK A01 T00541103  RH  031%=      5-min Rain = 0
KNH1 120031Z 01006KT 05/M10 A3026 RMK A01 T00531103  RH  031%=      5-min Rain = 0
KNH1 120032Z 01006KT 05/M10 A3026 RMK A01 T00531103  RH  031%=      5-min Rain = 0
KNH1 120033Z 01005KT 05/M10 A3026 RMK A01 T00531103  RH  031%=      5-min Rain = 0
KNH1 120034Z 01005KT 05/M10 A3026 RMK A01 T00531103  RH  032%=      5-min Rain = 0
KNH1 120035Z 01006KT 05/M10 A3026 RMK A01 T00521103  RH  032%=      5-min Rain = 0
KNH1 120036Z 01005KT 05/M10 A3026 RMK A01 T00521103  RH  032%=      5-min Rain = 0
KNH1 120037Z 01005KT 05/M10 A3026 RMK A01 T00511104  RH  032%=      5-min Rain = 0
KNH1 120038Z 01005KT 05/M10 A3026 RMK A01 T00511103  RH  032%=      5-min Rain = 0
KNH1 120039Z 01005KT 05/M10 A3026 RMK A01 T00511103  RH  032%=      5-min Rain = 0
KNH1 120040Z 01005KT 05/M10 A3026 RMK A01 T00501103  RH  032%=      5-min Rain = 0
KNH1 120041Z 01005KT 05/M10 A3026 RMK A01 T00501104  RH  032%=      5-min Rain = 0
KNH1 120042Z 01005KT 05/M10 A3026 RMK A01 T00491104  RH  032%=      5-min Rain = 0
KNH1 120043Z 01005KT 05/M10 A3026 RMK A01 T00491104  RH  032%=      5-min Rain = 0
KNH1 120044Z 01004KT 05/M10 A3026 RMK A01 T00481104  RH  032%=      5-min Rain = 0
KNH1 120045Z 02005KT 05/M10 A3026 RMK A01 T00471104  RH  032%=      5-min Rain = 0
KNH1 120046Z 01004KT 05/M10 A3026 RMK A01 T00471104  RH  032%=      5-min Rain = 0
KNH1 120047Z 01004KT 05/M11 A3026 RMK A01 T00461105  RH  033%=      5-min Rain = 0
KNH1 120048Z 01005KT 05/M10 A3026 RMK A01 T00461104  RH  033%=      5-min Rain = 0
KNH1 120049Z 01004KT 05/M10 A3026 RMK A01 T00461104  RH  033%=      5-min Rain = 0
KNH1 120050Z 01004KT 05/M10 A3026 RMK A01 T00451104  RH  033%=      5-min Rain = 0
KNH1 120051Z 01004KT 05/M10 A3026 RMK A01 T00451104  RH  033%=      5-min Rain = 0
KNH1 120052Z 01005KT 05/M10 A3026 RMK A01 T00451104  RH  033%=      5-min Rain = 0
KNH1 120053Z 02005KT 05/M10 A3026 RMK A01 T00451103  RH  033%=      5-min Rain = 0
KNH1 120054Z 02005KT 05/M10 A3025 RMK A01 T00461103  RH  033%=      5-min Rain = 0
KNH1 120055Z 02005KT 05/M10 A3025 RMK A01 T00451104  RH  033%=      5-min Rain = 0
KNH1 120056Z 02006KT 05/M10 A3025 RMK A01 T00451103  RH  033%=      5-min Rain = 0
KNH1 120057Z 02005KT 05/M10 A3025 RMK A01 T00451103  RH  033%=      5-min Rain = 0
KNH1 120058Z 02006KT 05/M10 A3025 RMK A01 T00451104  RH  033%=      5-min Rain = 0
KNH1 120059Z 02006KT 05/M10 A3025 RMK A01 T00461104  RH  033%=      5-min Rain = 0
KNH1 120100Z 02005KT 05/M10 A3025 RMK A01 T00451104  RH  033%=      5-min Rain = 0
KNH1 120101Z 02005KT 04/M11 A3026 RMK A01 T00441105  RH  033%=      5-min Rain = 0
KNH1 120102Z 02005KT 04/M11 A3026 RMK A01 T00421106  RH  033%=      5-min Rain = 0
KNH1 120103Z 01005KT 04/M11 A3026 RMK A01 T00401107  RH  033%=      5-min Rain = 0
KNH1 120104Z 02005KT 04/M11 A3026 RMK A01 T00391107  RH  034%=      5-min Rain = 0
KNH1 120105Z 01005KT 04/M11 A3026 RMK A01 T00391106  RH  034%=      5-min Rain = 0
KNH1 120106Z 02005KT 04/M11 A3026 RMK A01 T00381107  RH  034%=      5-min Rain = 0
KNH1 120107Z 02005KT 04/M11 A3026 RMK A01 T00381107  RH  034%=      5-min Rain = 0
KNH1 120108Z 01006KT 04/M11 A3026 RMK A01 T00381106  RH  034%=      5-min Rain = 0
KNH1 120109Z 02005KT 04/M11 A3026 RMK A01 T00371106  RH  034%=      5-min Rain = 0
KNH1 120110Z 01006KT 04/M11 A3026 RMK A01 T00361107  RH  034%=      5-min Rain = 0
KNH1 120111Z 01006KT 04/M11 A3026 RMK A01 T00361107  RH  034%=      5-min Rain = 0
KNH1 120112Z 01006KT 04/M11 A3026 RMK A01 T00371106  RH  034%=      5-min Rain = 0
KNH1 120113Z 01005KT 04/M11 A3026 RMK A01 T00381105  RH  034%=      5-min Rain = 0
KNH1 120114Z 02006KT 04/M11 A3026 RMK A01 T00391105  RH  034%=      5-min Rain = 0
KNH1 120115Z 01006KT 04/M11 A3026 RMK A01 T00391105  RH  034%=      5-min Rain = 0
KNH1 120116Z 01006KT 04/M11 A3026 RMK A01 T00391105  RH  034%=      5-min Rain = 0
KNH1 120117Z 02006KT 04/M10 A3026 RMK A01 T00391104  RH  034%=      5-min Rain = 0
KNH1 120118Z 01006KT 04/M11 A3026 RMK A01 T00381105  RH  034%=      5-min Rain = 0
KNH1 120119Z 02005KT 04/M11 A3026 RMK A01 T00381105  RH  035%=      5-min Rain = 0
KNH1 120120Z 02007KT 04/M11 A3026 RMK A01 T00381105  RH  035%=      5-min Rain = 0
KNH1 120121Z 01006KT 04/M11 A3026 RMK A01 T00371105  RH  035%=      5-min Rain = 0
KNH1 120122Z 02006KT 04/M11 A3026 RMK A01 T00371105  RH  035%=      5-min Rain = 0
KNH1 120123Z 02006KT 04/M11 A3026 RMK A01 T00371106  RH  034%=      5-min Rain = 0
KNH1 120124Z 02006KT 04/M11 A3026 RMK A01 T00371106  RH  034%=      5-min Rain = 0
KNH1 120125Z 02006KT 04/M11 A3026 RMK A01 T00371107  RH  034%=      5-min Rain = 0
KNH1 120126Z 02006KT 04/M11 A3026 RMK A01 T00361107  RH  034%=      5-min Rain = 0
KNH1 120127Z 02006KT 04/M11 A3026 RMK A01 T00361107  RH  034%=      5-min Rain = 0
KNH1 120128Z 02006KT 04/M11 A3026 RMK A01 T00351106  RH  035%=      5-min Rain = 0
KNH1 120129Z 02007KT 04/M11 A3026 RMK A01 T00351105  RH  035%=      5-min Rain = 0
KNH1 120130Z 02007KT 04/M11 A3026 RMK A01 T00351106  RH  035%=      5-min Rain = 0
KNH1 120131Z 02007KT 03/M11 A3026 RMK A01 T00341106  RH  035%=      5-min Rain = 0
KNH1 120132Z 02007KT 03/M11 A3026 RMK A01 T00331106  RH  035%=      5-min Rain = 0
KNH1 120133Z 02007KT 03/M11 A3027 RMK A01 T00331105  RH  036%=      5-min Rain = 0
KNH1 120134Z 02006KT 03/M11 A3027 RMK A01 T00321105  RH  036%=      5-min Rain = 0
KNH1 120135Z 03006KT 03/M11 A3027 RMK A01 T00331105  RH  036%=      5-min Rain = 0
KNH1 120136Z 02006KT 03/M11 A3027 RMK A01 T00331105  RH  036%=      5-min Rain = 0
KNH1 120137Z 02006KT 03/M11 A3026 RMK A01 T00331105  RH  036%=      5-min Rain = 0
KNH1 120138Z 03006KT 03/M11 A3026 RMK A01 T00331105  RH  036%=      5-min Rain = 0
KNH1 120139Z 03006KT 03/M11 A3026 RMK A01 T00321106  RH  036%=      5-min Rain = 0
KNH1 120140Z 03005KT 03/M11 A3026 RMK A01 T00311106  RH  036%=      5-min Rain = 0
KNH1 120141Z 03006KT 03/M11 A3026 RMK A01 T00311106  RH  036%=      5-min Rain = 0
KNH1 120142Z 03007KT 03/M11 A3026 RMK A01 T00301106  RH  036%=      5-min Rain = 0
KNH1 120143Z 03006KT 03/M11 A3027 RMK A01 T00301107  RH  036%=      5-min Rain = 0
KNH1 120144Z 03006KT 03/M11 A3027 RMK A01 T00301106  RH  036%=      5-min Rain = 0
KNH1 120145Z 03006KT 03/M11 A3027 RMK A01 T00311105  RH  036%=      5-min Rain = 0
KNH1 120146Z 03006KT 03/M10 A3027 RMK A01 T00331103  RH  036%=      5-min Rain = 0
KNH1 120147Z 03006KT 03/M10 A3027 RMK A01 T00341103  RH  036%=      5-min Rain = 0
KNH1 120148Z 03006KT 03/M10 A3027 RMK A01 T00341103  RH  036%=      5-min Rain = 0
KNH1 120149Z 03006KT 03/M10 A3027 RMK A01 T00341103  RH  036%=      5-min Rain = 0
KNH1 120150Z 03006KT 04/M10 A3027 RMK A01 T00351103  RH  036%=      5-min Rain = 0
KNH1 120151Z 03006KT 04/M10 A3027 RMK A01 T00351103  RH  036%=      5-min Rain = 0
KNH1 120152Z 03006KT 04/M10 A3027 RMK A01 T00361104  RH  035%=      5-min Rain = 0
KNH1 120153Z 03005KT 04/M10 A3027 RMK A01 T00361104  RH  035%=      5-min Rain = 0
KNH1 120154Z 03006KT 04/M10 A3027 RMK A01 T00361104  RH  035%=      5-min Rain = 0
KNH1 120155Z 02006KT 04/M10 A3027 RMK A01 T00361104  RH  035%=      5-min Rain = 0
KNH1 120156Z 02005KT 04/M11 A3027 RMK A01 T00351105  RH  035%=      5-min Rain = 0
KNH1 120157Z 03005KT 03/M11 A3027 RMK A01 T00341106  RH  035%=      5-min Rain = 0
KNH1 120158Z 03006KT 03/M11 A3027 RMK A01 T00331106  RH  035%=      5-min Rain = 0
KNH1 120159Z 03005KT 03/M11 A3027 RMK A01 T00331106  RH  035%=      5-min Rain = 0
KNH1 120200Z 03006KT 03/M11 A3027 RMK A01 T00321105  RH  036%=      5-min Rain = 0
KNH1 120201Z 03006KT 03/M11 A3027 RMK A01 T00321105  RH  036%=      5-min Rain = 0
KNH1 120202Z 03006KT 03/M11 A3027 RMK A01 T00311106  RH  036%=      5-min Rain = 0
KNH1 120203Z 03005KT 03/M11 A3027 RMK A01 T00301107  RH  036%=      5-min Rain = 0
KNH1 120204Z 03006KT 03/M11 A3027 RMK A01 T00301107  RH  036%=      5-min Rain = 0
KNH1 120205Z 03005KT 03/M11 A3027 RMK A01 T00291107  RH  036%=      5-min Rain = 0
KNH1 120206Z 02006KT 03/M11 A3027 RMK A01 T00281108  RH  036%=      5-min Rain = 0
KNH1 120207Z 03005KT 03/M11 A3027 RMK A01 T00281108  RH  036%=      5-min Rain = 0
KNH1 120208Z 02005KT 03/M11 A3028 RMK A01 T00271108  RH  036%=      5-min Rain = 0
KNH1 120209Z 02005KT 03/M11 A3028 RMK A01 T00271108  RH  036%=      5-min Rain = 0
KNH1 120210Z 03005KT 03/M11 A3028 RMK A01 T00261108  RH  036%=      5-min Rain = 0
KNH1 120211Z 02005KT 03/M11 A3028 RMK A01 T00251108  RH  037%=      5-min Rain = 0
KNH1 120212Z 02006KT 03/M11 A3027 RMK A01 T00251108  RH  037%=      5-min Rain = 0
KNH1 120213Z 03005KT 02/M11 A3027 RMK A01 T00241108  RH  037%=      5-min Rain = 0
KNH1 120214Z 03005KT 02/M11 A3027 RMK A01 T00241108  RH  037%=      5-min Rain = 0
KNH1 120215Z 03005KT 02/M11 A3027 RMK A01 T00231109  RH  037%=      5-min Rain = 0
KNH1 120216Z 03005KT 02/M11 A3027 RMK A01 T00221109  RH  037%=      5-min Rain = 0
KNH1 120217Z 02005KT 02/M11 A3027 RMK A01 T00211110  RH  037%=      5-min Rain = 0
KNH1 120218Z 03006KT 02/M11 A3027 RMK A01 T00211109  RH  037%=      5-min Rain = 0
KNH1 120219Z 02006KT 02/M11 A3027 RMK A01 T00221109  RH  037%=      5-min Rain = 0
KNH1 120220Z 02007KT 02/M11 A3027 RMK A01 T00231108  RH  037%=      5-min Rain = 0
KNH1 120221Z 03006KT 02/M11 A3027 RMK A01 T00241108  RH  037%=      5-min Rain = 0
KNH1 120222Z 02006KT 03/M11 A3027 RMK A01 T00251108  RH  037%=      5-min Rain = 0
KNH1 120223Z 02006KT 03/M11 A3027 RMK A01 T00251108  RH  037%=      5-min Rain = 0
KNH1 120224Z 03006KT 02/M11 A3027 RMK A01 T00241108  RH  037%=      5-min Rain = 0
KNH1 120225Z 03005KT 03/M11 A3027 RMK A01 T00251107  RH  037%=      5-min Rain = 0
KNH1 120226Z 03005KT 03/M11 A3027 RMK A01 T00261107  RH  037%=      5-min Rain = 0
KNH1 120227Z 03005KT 03/M11 A3027 RMK A01 T00261107  RH  037%=      5-min Rain = 0
KNH1 120228Z 03005KT 03/M11 A3027 RMK A01 T00261107  RH  037%=      5-min Rain = 0
KNH1 120229Z 03005KT 02/M11 A3027 RMK A01 T00241107  RH  037%=      5-min Rain = 0
KNH1 120230Z 03005KT 02/M11 A3027 RMK A01 T00231107  RH  038%=      5-min Rain = 0
KNH1 120231Z 03006KT 02/M11 A3027 RMK A01 T00231107  RH  038%=      5-min Rain = 0
KNH1 120232Z 03006KT 02/M11 A3027 RMK A01 T00231106  RH  038%=      5-min Rain = 0
KNH1 120233Z 03006KT 03/M11 A3027 RMK A01 T00251105  RH  038%=      5-min Rain = 0
KNH1 120234Z 03006KT 03/M11 A3027 RMK A01 T00251105  RH  038%=      5-min Rain = 0
KNH1 120235Z 03006KT 03/M11 A3028 RMK A01 T00251105  RH  038%=      5-min Rain = 0
KNH1 120236Z 03005KT 03/M11 A3028 RMK A01 T00251105  RH  038%=      5-min Rain = 0
KNH1 120237Z 03005KT 03/M10 A3028 RMK A01 T00261104  RH  038%=      5-min Rain = 0
KNH1 120238Z 03005KT 03/M11 A3028 RMK A01 T00251105  RH  038%=      5-min Rain = 0
KNH1 120239Z 03004KT 02/M11 A3028 RMK A01 T00241106  RH  038%=      5-min Rain = 0
KNH1 120240Z 03005KT 02/M11 A3028 RMK A01 T00241105  RH  038%=      5-min Rain = 0
KNH1 120241Z 03005KT 02/M11 A3028 RMK A01 T00231105  RH  038%=      5-min Rain = 0
KNH1 120242Z 03005KT 02/M11 A3028 RMK A01 T00231105  RH  038%=      5-min Rain = 0
KNH1 120243Z 03004KT 02/M11 A3028 RMK A01 T00231105  RH  038%=      5-min Rain = 0
KNH1 120244Z 03005KT 02/M11 A3028 RMK A01 T00231105  RH  038%=      5-min Rain = 0
KNH1 120245Z 03005KT 02/M11 A3028 RMK A01 T00241105  RH  038%=      5-min Rain = 0
KNH1 120246Z 03005KT 02/M11 A3028 RMK A01 T00241105  RH  038%=      5-min Rain = 0
KNH1 120247Z 03005KT 02/M11 A3027 RMK A01 T00231105  RH  038%=      5-min Rain = 0
KNH1 120248Z 04005KT 02/M11 A3027 RMK A01 T00231106  RH  038%=      5-min Rain = 0
KNH1 120249Z 04005KT 02/M11 A3027 RMK A01 T00221105  RH  039%=      5-min Rain = 0
KNH1 120250Z 04005KT 02/M11 A3027 RMK A01 T00211105  RH  039%=      5-min Rain = 0
KNH1 120251Z 03005KT 02/M10 A3027 RMK A01 T00221104  RH  039%=      5-min Rain = 0
KNH1 120252Z 04005KT 02/M10 A3027 RMK A01 T00221104  RH  039%=      5-min Rain = 0
KNH1 120253Z 03005KT 02/M11 A3027 RMK A01 T00211105  RH  039%=      5-min Rain = 0
KNH1 120254Z 04005KT 02/M10 A3027 RMK A01 T00221104  RH  039%=      5-min Rain = 0
KNH1 120255Z 04005KT 02/M10 A3027 RMK A01 T00211104  RH  039%=      5-min Rain = 0
KNH1 120256Z 04005KT 02/M10 A3027 RMK A01 T00211104  RH  039%=      5-min Rain = 0
KNH1 120257Z 04005KT 02/M10 A3027 RMK A01 T00211104  RH  039%=      5-min Rain = 0
KNH1 120258Z 04005KT 02/M10 A3027 RMK A01 T00201104  RH  039%=      5-min Rain = 0
KNH1 120259Z 04006KT 02/M10 A3027 RMK A01 T00201104  RH  039%=      5-min Rain = 0
KNH1 120300Z 04005KT 02/M10 A3027 RMK A01 T00201104  RH  039%=      5-min Rain = 0
KNH1 120301Z 05005KT 02/M11 A3027 RMK A01 T00191105  RH  039%=      5-min Rain = 0
KNH1 120302Z 04005KT 02/M11 A3027 RMK A01 T00181105  RH  040%=      5-min Rain = 0
KNH1 120303Z 04005KT 02/M10 A3027 RMK A01 T00191104  RH  040%=      5-min Rain = 0
KNH1 120304Z 05005KT 02/M11 A3027 RMK A01 T00181105  RH  040%=      5-min Rain = 0
KNH1 120305Z 05006KT 02/M11 A3027 RMK A01 T00171105  RH  040%=      5-min Rain = 0
KNH1 120306Z 05006KT 02/M11 A3027 RMK A01 T00171105  RH  040%=      5-min Rain = 0
KNH1 120307Z 05006KT 02/M11 A3027 RMK A01 T00171105  RH  040%=      5-min Rain = 0
KNH1 120308Z 05007KT 02/M10 A3027 RMK A01 T00171104  RH  040%=      5-min Rain = 0
KNH1 120309Z 05006KT 02/M10 A3027 RMK A01 T00171104  RH  040%=      5-min Rain = 0
KNH1 120310Z 05006KT 02/M10 A3027 RMK A01 T00171104  RH  040%=      5-min Rain = 0
KNH1 120311Z 05006KT 02/M10 A3027 RMK A01 T00171104  RH  040%=      5-min Rain = 0
KNH1 120312Z 05007KT 02/M10 A3027 RMK A01 T00171104  RH  040%=      5-min Rain = 0
KNH1 120313Z 05006KT 02/M10 A3027 RMK A01 T00171104  RH  040%=      5-min Rain = 0
KNH1 120314Z 05007KT 02/M10 A3027 RMK A01 T00171104  RH  040%=      5-min Rain = 0
KNH1 120315Z 06006KT 02/M10 A3027 RMK A01 T00181104  RH  040%=      5-min Rain = 0
KNH1 120316Z 06006KT 02/M10 A3027 RMK A01 T00181104  RH  040%=      5-min Rain = 0
KNH1 120317Z 06006KT 02/M11 A3027 RMK A01 T00171106  RH  040%=      5-min Rain = 0
KNH1 120318Z 06007KT 01/M11 A3027 RMK A01 T00141107  RH  040%=      5-min Rain = 0
KNH1 120319Z 06007KT 01/M11 A3027 RMK A01 T00121108  RH  040%=      5-min Rain = 0
KNH1 120320Z 06007KT 01/M11 A3027 RMK A01 T00111108  RH  041%=      5-min Rain = 0
KNH1 120321Z 06007KT 01/M11 A3027 RMK A01 T00101108  RH  041%=      5-min Rain = 0
KNH1 120322Z 05008KT 01/M11 A3027 RMK A01 T00111107  RH  041%=      5-min Rain = 0
KNH1 120323Z 05007KT 01/M10 A3027 RMK A01 T00131104  RH  041%=      5-min Rain = 0
KNH1 120324Z 05007KT 02/M10 A3027 RMK A01 T00151104  RH  041%=      5-min Rain = 0
KNH1 120325Z 05007KT 02/M10 A3027 RMK A01 T00161104  RH  040%=      5-min Rain = 0
KNH1 120326Z 05007KT 02/M10 A3027 RMK A01 T00171103  RH  040%=      5-min Rain = 0
KNH1 120327Z 05007KT 02/M10 A3027 RMK A01 T00181103  RH  040%=      5-min Rain = 0
KNH1 120328Z 05006KT 02/M10 A3027 RMK A01 T00191103  RH  040%=      5-min Rain = 0
KNH1 120329Z 04007KT 02/M10 A3027 RMK A01 T00191104  RH  040%=      5-min Rain = 0
KNH1 120330Z 04005KT 02/M11 A3027 RMK A01 T00181105  RH  040%=      5-min Rain = 0
KNH1 120331Z 04006KT 02/M11 A3027 RMK A01 T00171106  RH  040%=      5-min Rain = 0
KNH1 120332Z 04006KT 02/M11 A3027 RMK A01 T00151106  RH  040%=      5-min Rain = 0
KNH1 120333Z 05006KT 02/M11 A3027 RMK A01 T00151106  RH  040%=      5-min Rain = 0
KNH1 120334Z 05005KT 02/M11 A3027 RMK A01 T00151106  RH  040%=      5-min Rain = 0
KNH1 120335Z 04005KT 02/M11 A3027 RMK A01 T00151106  RH  040%=      5-min Rain = 0
KNH1 120336Z 05005KT 01/M11 A3027 RMK A01 T00141107  RH  040%=      5-min Rain = 0
KNH1 120337Z 05005KT 01/M11 A3027 RMK A01 T00131107  RH  040%=      5-min Rain = 0
KNH1 120338Z 05005KT 01/M11 A3027 RMK A01 T00141106  RH  040%=      5-min Rain = 0
KNH1 120339Z 05005KT 01/M11 A3027 RMK A01 T00141106  RH  040%=      5-min Rain = 0
KNH1 120340Z 05006KT 01/M11 A3027 RMK A01 T00141107  RH  040%=      5-min Rain = 0
KNH1 120341Z 05005KT 01/M11 A3028 RMK A01 T00141107  RH  040%=      5-min Rain = 0
KNH1 120342Z 05005KT 01/M11 A3028 RMK A01 T00141107  RH  040%=      5-min Rain = 0
KNH1 120343Z 06005KT 01/M11 A3028 RMK A01 T00131107  RH  040%=      5-min Rain = 0
KNH1 120344Z 05005KT 01/M11 A3028 RMK A01 T00121108  RH  041%=      5-min Rain = 0
KNH1 120345Z 06005KT 01/M11 A3028 RMK A01 T00111108  RH  041%=      5-min Rain = 0
KNH1 120346Z 06005KT 01/M11 A3028 RMK A01 T00101108  RH  041%=      5-min Rain = 0
KNH1 120347Z 06004KT 01/M11 A3028 RMK A01 T00101108  RH  041%=      5-min Rain = 0
KNH1 120348Z 06004KT 01/M11 A3028 RMK A01 T00091108  RH  041%=      5-min Rain = 0
KNH1 120349Z 06005KT 01/M11 A3028 RMK A01 T00081108  RH  042%=      5-min Rain = 0
KNH1 120350Z 06005KT 01/M11 A3028 RMK A01 T00091108  RH  042%=      5-min Rain = 0
KNH1 120351Z 06005KT 01/M11 A3028 RMK A01 T00091108  RH  041%=      5-min Rain = 0
KNH1 120352Z 06005KT 01/M11 A3028 RMK A01 T00091109  RH  041%=      5-min Rain = 0
KNH1 120353Z 06005KT 01/M11 A3028 RMK A01 T00091109  RH  041%=      5-min Rain = 0
KNH1 120354Z 05005KT 01/M11 A3028 RMK A01 T00091109  RH  041%=      5-min Rain = 0
KNH1 120355Z 05005KT 01/M11 A3028 RMK A01 T00091109  RH  041%=      5-min Rain = 0
KNH1 120356Z 05005KT 01/M11 A3028 RMK A01 T00091108  RH  041%=      5-min Rain = 0
KNH1 120357Z 05005KT 01/M11 A3028 RMK A01 T00091109  RH  041%=      5-min Rain = 0
KNH1 120358Z 05005KT 01/M11 A3028 RMK A01 T00081109  RH  041%=      5-min Rain = 0
KNH1 120359Z 05005KT 01/M11 A3028 RMK A01 T00071109  RH  042%=      5-min Rain = 0
KNH1 120400Z 05005KT 01/M11 A3028 RMK A01 T00061108  RH  042%=      5-min Rain = 0
KNH1 120401Z 05005KT 01/M11 A3028 RMK A01 T00061108  RH  042%=      5-min Rain = 0
KNH1 120402Z 06005KT 01/M11 A3028 RMK A01 T00051107  RH  043%=      5-min Rain = 0
KNH1 120403Z 06005KT 01/M11 A3028 RMK A01 T00051107  RH  043%=      5-min Rain = 0
KNH1 120404Z 05005KT 01/M11 A3028 RMK A01 T00061106  RH  043%=      5-min Rain = 0
KNH1 120405Z 06004KT 01/M11 A3028 RMK A01 T00081106  RH  042%=      5-min Rain = 0
KNH1 120406Z 06005KT 01/M11 A3028 RMK A01 T00081107  RH  042%=      5-min Rain = 0
KNH1 120407Z 06006KT 01/M11 A3028 RMK A01 T00091106  RH  042%=      5-min Rain = 0
KNH1 120408Z 06005KT 01/M11 A3028 RMK A01 T00091106  RH  042%=      5-min Rain = 0
KNH1 120409Z 06005KT 01/M11 A3028 RMK A01 T00091105  RH  042%=      5-min Rain = 0
KNH1 120410Z 06004KT 01/M11 A3028 RMK A01 T00101106  RH  042%=      5-min Rain = 0
KNH1 120411Z 06004KT 01/M11 A3028 RMK A01 T00091106  RH  042%=      5-min Rain = 0
KNH1 120412Z 06005KT 01/M11 A3028 RMK A01 T00081106  RH  042%=      5-min Rain = 0
KNH1 120413Z 06004KT 01/M11 A3029 RMK A01 T00081106  RH  042%=      5-min Rain = 0
KNH1 120414Z 06005KT 01/M11 A3029 RMK A01 T00081106  RH  042%=      5-min Rain = 0
KNH1 120415Z 06005KT 01/M11 A3029 RMK A01 T00071106  RH  042%=      5-min Rain = 0
KNH1 120416Z 06005KT 01/M11 A3029 RMK A01 T00071107  RH  042%=      5-min Rain = 0
KNH1 120417Z 06005KT 01/M11 A3029 RMK A01 T00071106  RH  042%=      5-min Rain = 0
KNH1 120418Z 06005KT 01/M11 A3029 RMK A01 T00071106  RH  043%=      5-min Rain = 0
KNH1 120419Z 06005KT 01/M11 A3029 RMK A01 T00071106  RH  043%=      5-min Rain = 0
KNH1 120420Z 06005KT 01/M11 A3029 RMK A01 T00071106  RH  043%=      5-min Rain = 0
KNH1 120421Z 05005KT 01/M11 A3029 RMK A01 T00071106  RH  043%=      5-min Rain = 0
KNH1 120422Z 05004KT 01/M11 A3029 RMK A01 T00071105  RH  043%=      5-min Rain = 0
KNH1 120423Z 06004KT 01/M11 A3029 RMK A01 T00071105  RH  043%=      5-min Rain = 0
KNH1 120424Z 05004KT 01/M11 A3029 RMK A01 T00071105  RH  043%=      5-min Rain = 0
KNH1 120425Z 05003KT 01/M11 A3029 RMK A01 T00071105  RH  043%=      5-min Rain = 0
KNH1 120426Z 05003KT 01/M10 A3029 RMK A01 T00071104  RH  043%=      5-min Rain = 0
KNH1 120427Z 05004KT 01/M10 A3029 RMK A01 T00081104  RH  043%=      5-min Rain = 0
KNH1 120428Z 05004KT 01/M10 A3029 RMK A01 T00081104  RH  043%=      5-min Rain = 0
KNH1 120429Z 05004KT 01/M10 A3029 RMK A01 T00081104  RH  043%=      5-min Rain = 0
KNH1 120430Z 05004KT 01/M10 A3029 RMK A01 T00091104  RH  043%=      5-min Rain = 0
KNH1 120431Z 05005KT 01/M11 A3029 RMK A01 T00081105  RH  043%=      5-min Rain = 0
KNH1 120432Z 05005KT 01/M10 A3029 RMK A01 T00081104  RH  043%=      5-min Rain = 0
KNH1 120433Z 05005KT 01/M10 A3029 RMK A01 T00071104  RH  043%=      5-min Rain = 0
KNH1 120434Z 05005KT 01/M10 A3029 RMK A01 T00071104  RH  043%=      5-min Rain = 0
KNH1 120435Z 05005KT 01/M10 A3029 RMK A01 T00061104  RH  043%=      5-min Rain = 0
KNH1 120436Z 05005KT 01/M10 A3029 RMK A01 T00061104  RH  044%=      5-min Rain = 0
KNH1 120437Z 06005KT 01/M10 A3029 RMK A01 T00071103  RH  043%=      5-min Rain = 0
KNH1 120438Z 05005KT 01/M10 A3029 RMK A01 T00081103  RH  043%=      5-min Rain = 0
KNH1 120439Z 05005KT 01/M10 A3029 RMK A01 T00081103  RH  043%=      5-min Rain = 0
KNH1 120440Z 05005KT 01/M10 A3029 RMK A01 T00081103  RH  043%=      5-min Rain = 0
KNH1 120441Z 06005KT 01/M10 A3029 RMK A01 T00091103  RH  043%=      5-min Rain = 0
KNH1 120442Z 05005KT 01/M10 A3029 RMK A01 T00081104  RH  043%=      5-min Rain = 0
KNH1 120443Z 06005KT 01/M10 A3029 RMK A01 T00081103  RH  043%=      5-min Rain = 0
KNH1 120444Z 06005KT 01/M10 A3029 RMK A01 T00081103  RH  043%=      5-min Rain = 0
KNH1 120445Z 06005KT 01/M10 A3029 RMK A01 T00081103  RH  043%=      5-min Rain = 0
KNH1 120446Z 05005KT 01/M10 A3029 RMK A01 T00081103  RH  043%=      5-min Rain = 0
KNH1 120447Z 05005KT 01/M10 A3029 RMK A01 T00071104  RH  043%=      5-min Rain = 0
KNH1 120448Z 05005KT 01/M10 A3029 RMK A01 T00061104  RH  044%=      5-min Rain = 0
KNH1 120449Z 05005KT 01/M10 A3029 RMK A01 T00061103  RH  044%=      5-min Rain = 0
KNH1 120450Z 05005KT 01/M10 A3029 RMK A01 T00051103  RH  044%=      5-min Rain = 0
KNH1 120451Z 05005KT 01/M10 A3029 RMK A01 T00051103  RH  044%=      5-min Rain = 0
KNH1 120452Z 05005KT 01/M10 A3029 RMK A01 T00061103  RH  044%=      5-min Rain = 0
KNH1 120453Z 05005KT 01/M10 A3029 RMK A01 T00061103  RH  044%=      5-min Rain = 0
KNH1 120454Z 05005KT 01/M10 A3029 RMK A01 T00061103  RH  044%=      5-min Rain = 0
KNH1 120455Z 05006KT 01/M10 A3029 RMK A01 T00061103  RH  044%=      5-min Rain = 0
KNH1 120456Z 05005KT 01/M10 A3029 RMK A01 T00061103  RH  044%=      5-min Rain = 0
KNH1 120457Z 05005KT 01/M10 A3029 RMK A01 T00061104  RH  044%=      5-min Rain = 0
KNH1 120458Z 05006KT 01/M10 A3029 RMK A01 T00061103  RH  044%=      5-min Rain = 0
KNH1 120459Z 05005KT 01/M10 A3029 RMK A01 T00061103  RH  044%=      5-min Rain = 0
KNH1 120500Z 05005KT 01/M10 A3029 RMK A01 T00061103  RH  044%=      5-min Rain = 0
KNH1 120501Z 05005KT 01/M10 A3029 RMK A01 T00051103  RH  044%=      5-min Rain = 0
KNH1 120502Z 05005KT 01/M10 A3029 RMK A01 T00051103  RH  044%=      5-min Rain = 0
KNH1 120503Z 05005KT 01/M10 A3029 RMK A01 T00051103  RH  044%=      5-min Rain = 0
KNH1 120504Z 05005KT 01/M10 A3029 RMK A01 T00051104  RH  044%=      5-min Rain = 0
KNH1 120505Z 05005KT 01/M10 A3029 RMK A01 T00051104  RH  044%=      5-min Rain = 0
KNH1 120506Z 05005KT 01/M10 A3029 RMK A01 T00051104  RH  044%=      5-min Rain = 0
KNH1 120507Z 05005KT 01/M10 A3029 RMK A01 T00051104  RH  044%=      5-min Rain = 0
KNH1 120508Z 05005KT 01/M10 A3029 RMK A01 T00051104  RH  044%=      5-min Rain = 0
KNH1 120509Z 05005KT 01/M10 A3029 RMK A01 T00051104  RH  044%=      5-min Rain = 0
KNH1 120510Z 05005KT 00/M10 A3029 RMK A01 T00041104  RH  044%=      5-min Rain = 0
KNH1 120511Z 05005KT 00/M10 A3029 RMK A01 T00041104  RH  044%=      5-min Rain = 0
KNH1 120512Z 05005KT 00/M10 A3029 RMK A01 T00041104  RH  044%=      5-min Rain = 0
KNH1 120513Z 05005KT 00/M10 A3029 RMK A01 T00041104  RH  044%=      5-min Rain = 0
KNH1 120514Z 05005KT 00/M10 A3029 RMK A01 T00041104  RH  044%=      5-min Rain = 0
KNH1 120515Z 05005KT 00/M10 A3029 RMK A01 T00031104  RH  044%=      5-min Rain = 0
KNH1 120516Z 05005KT 00/M10 A3029 RMK A01 T00031104  RH  045%=      5-min Rain = 0
KNH1 120517Z 05005KT 00/M10 A3029 RMK A01 T00031104  RH  045%=      5-min Rain = 0
KNH1 120518Z 05005KT 00/M10 A3029 RMK A01 T00031103  RH  045%=      5-min Rain = 0
KNH1 120519Z 06005KT 00/M10 A3029 RMK A01 T00031104  RH  045%=      5-min Rain = 0
KNH1 120520Z 05005KT 00/M11 A3029 RMK A01 T00011106  RH  044%=      5-min Rain = 0
KNH1 120521Z 05005KT 00/M11 A3029 RMK A01 T00011105  RH  045%=      5-min Rain = 0
KNH1 120522Z 05005KT 00/M11 A3029 RMK A01 T00021105  RH  045%=      5-min Rain = 0
KNH1 120523Z 05005KT 00/M11 A3029 RMK A01 T00021105  RH  045%=      5-min Rain = 0
KNH1 120524Z 05005KT 00/M11 A3029 RMK A01 T00021105  RH  045%=      5-min Rain = 0
KNH1 120525Z 05005KT 00/M10 A3029 RMK A01 T00021104  RH  045%=      5-min Rain = 0
KNH1 120526Z 05005KT 00/M11 A3029 RMK A01 T00021105  RH  044%=      5-min Rain = 0
KNH1 120527Z 05005KT 00/M11 A3029 RMK A01 T00011105  RH  045%=      5-min Rain = 0
KNH1 120528Z 05005KT 00/M11 A3029 RMK A01 T00021105  RH  045%=      5-min Rain = 0
KNH1 120529Z 06005KT 00/M11 A3029 RMK A01 T00021105  RH  045%=      5-min Rain = 0
KNH1 120530Z 05004KT 00/M11 A3029 RMK A01 T00021105  RH  045%=      5-min Rain = 0
KNH1 120531Z 05005KT 00/M10 A3029 RMK A01 T00021104  RH  045%=      5-min Rain = 0
KNH1 120532Z 06004KT 00/M11 A3029 RMK A01 T00021105  RH  044%=      5-min Rain = 0
KNH1 120533Z 06004KT 00/M11 A3029 RMK A01 T00021105  RH  044%=      5-min Rain = 0
KNH1 120534Z 05003KT 00/M11 A3029 RMK A01 T00021105  RH  044%=      5-min Rain = 0
KNH1 120535Z 06004KT 00/M11 A3029 RMK A01 T00021105  RH  044%=      5-min Rain = 0
KNH1 120536Z 05004KT 00/M11 A3029 RMK A01 T00031105  RH  044%=      5-min Rain = 0
KNH1 120537Z 05004KT 00/M11 A3029 RMK A01 T00021105  RH  044%=      5-min Rain = 0
KNH1 120538Z 05004KT 00/M11 A3029 RMK A01 T00021105  RH  044%=      5-min Rain = 0
KNH1 120539Z 05004KT 00/M11 A3029 RMK A01 T00021105  RH  044%=      5-min Rain = 0
KNH1 120540Z 05004KT 00/M11 A3029 RMK A01 T00021105  RH  045%=      5-min Rain = 0
KNH1 120541Z 05003KT 00/M11 A3029 RMK A01 T00021105  RH  044%=      5-min Rain = 0
KNH1 120542Z 05003KT 00/M11 A3029 RMK A01 T00011105  RH  045%=      5-min Rain = 0
KNH1 120543Z 05003KT 00/11 A3029 RMK A01 T00-00-106  RH  045%=      5-min Rain = 0
KNH1 120544Z 05003KT M00/M10 A3029 RMK A01 T10011104  RH  045%=      5-min Rain = 0
KNH1 120545Z 05003KT M00/M10 A3029 RMK A01 T10011104  RH  046%=      5-min Rain = 0
KNH1 120546Z 05003KT M00/M10 A3029 RMK A01 T10011104  RH  046%=      5-min Rain = 0
KNH1 120547Z 05004KT 00/10 A3029 RMK A01 T00000-104  RH  045%=      5-min Rain = 0
KNH1 120548Z 05004KT 00/M10 A3029 RMK A01 T00011104  RH  045%=      5-min Rain = 0
KNH1 120549Z 05004KT 00/M10 A3029 RMK A01 T00021104  RH  045%=      5-min Rain = 0
KNH1 120550Z 05004KT 00/M10 A3029 RMK A01 T00021104  RH  045%=      5-min Rain = 0
KNH1 120551Z 05003KT 00/M10 A3029 RMK A01 T00011104  RH  045%=      5-min Rain = 0
KNH1 120552Z 05003KT 00/M10 A3029 RMK A01 T00021104  RH  045%=      5-min Rain = 0
KNH1 120553Z 05003KT 00/11 A3029 RMK A01 T00000-106  RH  045%=      5-min Rain = 0
KNH1 120554Z 05003KT M00/M11 A3029 RMK A01 T10021106  RH  045%=      5-min Rain = 0
KNH1 120555Z 05003KT M00/M11 A3029 RMK A01 T10041106  RH  046%=      5-min Rain = 0
KNH1 120556Z 05003KT M01/M11 A3029 RMK A01 T10051105  RH  047%=      5-min Rain = 0
KNH1 120557Z 05003KT M01/M10 A3029 RMK A01 T10051104  RH  047%=      5-min Rain = 0
KNH1 120558Z 05003KT M01/M10 A3029 RMK A01 T10051104  RH  047%=      5-min Rain = 0
KNH1 120559Z 05003KT M01/M10 A3029 RMK A01 T10051104  RH  047%=      5-min Rain = 0

Page generated in 0.1075 seconds.